Time,TemperatureF,DewpointF,PressureIn,WindDirection,WindDirectionDegrees,WindSpeedMPH,WindSpeedGustMPH,Humidity,HourlyPrecipIn,Conditions,Clouds,dailyrainin,SolarRadiationWatts/m^2,SoftwareType,DateUTC
2013-09-27 00:01:00,47.4,45.9,30.12,NE,39,0.0,0.0,95,0.00,,,0.00,0.00,VWS V14.01,2013-09-27 04:01:00,
2013-09-27 00:02:00,48.2,46.8,30.13,NE,39,0.0,0.0,95,0.00,,,0.00,0.00,VWS V14.01,2013-09-27 04:02:00,
2013-09-27 00:06:00,47.6,45.6,30.13,NNE,27,0.0,1.1,93,0.00,,,0.00,0.00,VWS V14.01,2013-09-27 04:06:00,
2013-09-27 00:07:00,47.4,45.1,30.13,NNE,27,0.0,1.1,92,0.00,,,0.00,0.00,VWS V14.01,2013-09-27 04:07:00,
2013-09-27 00:10:00,47.3,45.1,30.13,NNE,27,0.0,1.1,92,0.00,,,0.00,0.73,VWS V14.01,2013-09-27 04:10:00,
2013-09-27 00:11:00,47.5,45.4,30.13,NNE,27,0.0,1.1,92,0.00,,,0.00,0.00,VWS V14.01,2013-09-27 04:11:00,
2013-09-27 00:14:00,46.8,44.3,30.13,NNE,27,0.0,1.1,91,0.00,,,0.00,0.00,VWS V14.01,2013-09-27 04:14:00,
2013-09-27 00:17:00,45.9,44.0,30.12,NNE,27,0.0,1.1,93,0.00,,,0.00,0.00,VWS V14.01,2013-09-27 04:17:00,
2013-09-27 00:19:00,45.5,43.7,30.13,NNE,27,0.0,1.1,93,0.00,,,0.00,0.00,VWS V14.01,2013-09-27 04:19:00,
2013-09-27 00:20:00,45.2,43.4,30.13,NNE,27,0.0,1.1,93,0.00,,,0.00,0.00,VWS V14.01,2013-09-27 04:20:00,
2013-09-27 00:23:00,44.7,43.0,30.13,NNE,27,0.0,1.1,93,0.00,,,0.00,0.00,VWS V14.01,2013-09-27 04:23:00,
2013-09-27 00:24:00,45.4,43.8,30.13,NNE,27,0.0,1.1,94,0.00,,,0.00,0.00,VWS V14.01,2013-09-27 04:24:00,
2013-09-27 00:26:00,46.7,45.7,30.12,NNE,27,0.0,1.1,96,0.00,,,0.00,0.00,VWS V14.01,2013-09-27 04:26:00,
2013-09-27 00:27:00,46.7,45.8,30.13,North,9,0.0,1.1,97,0.00,,,0.00,0.00,VWS V14.01,2013-09-27 04:27:00,
2013-09-27 00:29:00,46.6,45.9,30.13,NNW,347,1.1,1.8,97,0.00,,,0.00,0.00,VWS V14.01,2013-09-27 04:29:00,
2013-09-27 00:30:00,46.8,46.1,30.13,NNW,347,1.8,1.8,97,0.00,,,0.00,0.00,VWS V14.01,2013-09-27 04:30:00,
2013-09-27 00:32:00,46.5,45.7,30.13,NNW,347,0.0,2.0,97,0.00,,,0.00,0.00,VWS V14.01,2013-09-27 04:32:00,
2013-09-27 00:34:00,45.3,44.3,30.13,NNW,347,0.0,2.0,96,0.00,,,0.00,0.00,VWS V14.01,2013-09-27 04:34:00,
2013-09-27 00:36:00,45.5,44.3,30.14,NNW,333,0.0,2.0,95,0.00,,,0.00,0.43,VWS V14.01,2013-09-27 04:36:00,
2013-09-27 00:37:00,46.0,44.9,30.14,NNW,333,1.3,2.0,96,0.00,,,0.00,0.00,VWS V14.01,2013-09-27 04:37:00,
2013-09-27 00:39:00,46.0,45.1,30.14,NNW,333,1.3,2.0,97,0.00,,,0.00,0.73,VWS V14.01,2013-09-27 04:39:00,
2013-09-27 00:40:00,45.8,45.0,30.13,NNW,333,0.0,2.0,97,0.00,,,0.00,0.00,VWS V14.01,2013-09-27 04:40:00,
2013-09-27 00:43:00,46.2,45.5,30.14,NNW,333,0.0,2.0,97,0.00,,,0.00,0.00,VWS V14.01,2013-09-27 04:43:00,
2013-09-27 00:45:00,46.6,46.0,30.14,NNW,333,0.0,2.0,98,0.00,,,0.00,0.00,VWS V14.01,2013-09-27 04:45:00,
2013-09-27 00:46:00,46.9,46.4,30.13,NNW,333,0.0,2.0,98,0.00,,,0.00,0.00,VWS V14.01,2013-09-27 04:46:00,
2013-09-27 00:48:00,46.2,45.5,30.13,NNW,333,0.0,2.0,98,0.00,,,0.00,0.00,VWS V14.01,2013-09-27 04:48:00,
2013-09-27 00:49:00,46.2,45.5,30.14,NNW,333,0.0,2.0,97,0.00,,,0.00,0.12,VWS V14.01,2013-09-27 04:49:00,
2013-09-27 00:50:00,46.1,45.3,30.14,NNW,333,0.0,2.0,97,0.00,,,0.00,0.00,VWS V14.01,2013-09-27 04:50:00,
2013-09-27 00:51:00,46.8,46.0,30.14,NNW,333,0.0,2.0,97,0.00,,,0.00,0.00,VWS V14.01,2013-09-27 04:51:00,
2013-09-27 00:54:00,47.1,46.6,30.14,NNE,20,0.0,2.0,98,0.00,,,0.00,0.73,VWS V14.01,2013-09-27 04:54:00,
2013-09-27 00:55:00,47.3,46.8,30.13,NNE,20,0.0,2.0,98,0.00,,,0.00,0.00,VWS V14.01,2013-09-27 04:55:00,
2013-09-27 00:56:00,47.5,47.1,30.13,NNE,20,0.0,2.0,98,0.00,,,0.00,0.00,VWS V14.01,2013-09-27 04:56:00,
2013-09-27 00:57:00,47.7,47.2,30.13,NNE,20,0.0,2.0,98,0.00,,,0.00,0.00,VWS V14.01,2013-09-27 04:57:00,
2013-09-27 00:59:00,48.1,47.7,30.13,NNE,20,0.0,2.0,98,0.00,,,0.00,0.00,VWS V14.01,2013-09-27 04:59:00,
2013-09-27 01:00:00,48.5,48.0,30.13,NNE,20,0.0,2.0,98,0.00,,,0.00,0.00,VWS V14.01,2013-09-27 05:00:00,
2013-09-27 01:01:00,48.4,47.8,30.13,NNE,20,0.0,0.0,98,0.00,,,0.00,0.00,VWS V14.01,2013-09-27 05:01:00,
2013-09-27 01:06:00,45.7,44.4,30.14,NNE,20,0.0,0.0,95,0.00,,,0.00,0.00,VWS V14.01,2013-09-27 05:06:00,
2013-09-27 01:07:00,45.2,43.8,30.13,NNE,20,0.0,0.0,95,0.00,,,0.00,0.00,VWS V14.01,2013-09-27 05:07:00,
2013-09-27 01:08:00,45.4,43.9,30.13,NNE,20,0.0,0.0,95,0.00,,,0.00,0.00,VWS V14.01,2013-09-27 05:08:00,
2013-09-27 01:11:00,46.1,45.0,30.13,NNE,20,0.0,0.0,96,0.00,,,0.00,0.00,VWS V14.01,2013-09-27 05:11:00,
2013-09-27 01:12:00,46.3,45.3,30.13,NNE,20,0.0,0.0,96,0.00,,,0.00,0.43,VWS V14.01,2013-09-27 05:12:00,
2013-09-27 01:14:00,47.1,46.5,30.13,WNW,286,0.0,0.0,98,0.00,,,0.00,0.00,VWS V14.01,2013-09-27 05:14:00,
2013-09-27 01:16:00,46.5,46.0,30.14,WNW,286,0.0,0.0,98,0.00,,,0.00,0.43,VWS V14.01,2013-09-27 05:16:00,
2013-09-27 01:17:00,47.1,46.6,30.14,WNW,286,0.0,0.0,98,0.00,,,0.00,0.00,VWS V14.01,2013-09-27 05:17:00,
2013-09-27 01:18:00,47.1,45.0,30.14,WNW,286,0.0,0.0,92,0.00,,,0.00,0.12,VWS V14.01,2013-09-27 05:18:00,
2013-09-27 01:20:00,46.1,45.6,30.14,WNW,286,0.0,0.0,98,0.00,,,0.00,0.00,VWS V14.01,2013-09-27 05:20:00,
2013-09-27 01:22:00,46.6,46.2,30.14,WNW,286,0.0,0.0,99,0.00,,,0.00,0.00,VWS V14.01,2013-09-27 05:22:00,
2013-09-27 01:23:00,47.4,47.2,30.14,WNW,286,0.0,0.0,99,0.00,,,0.00,0.00,VWS V14.01,2013-09-27 05:23:00,
2013-09-27 01:25:00,48.5,48.5,30.14,NNE,32,2.0,2.0,100,0.00,,,0.00,0.12,VWS V14.01,2013-09-27 05:25:00,
2013-09-27 01:27:00,47.9,47.9,30.14,NNE,32,2.0,2.2,100,0.00,,,0.00,0.00,VWS V14.01,2013-09-27 05:27:00,
2013-09-27 01:28:00,47.6,47.5,30.14,NE,36,1.8,2.2,100,0.00,,,0.00,0.12,VWS V14.01,2013-09-27 05:28:00,
2013-09-27 01:30:00,47.0,46.8,30.14,NE,36,1.5,2.2,99,0.00,,,0.00,0.43,VWS V14.01,2013-09-27 05:30:00,
2013-09-27 01:32:00,46.5,46.2,30.14,NE,36,0.0,2.2,99,0.00,,,0.00,0.12,VWS V14.01,2013-09-27 05:32:00,
2013-09-27 01:33:00,46.6,46.4,30.14,NE,36,0.0,2.2,99,0.00,,,0.00,0.00,VWS V14.01,2013-09-27 05:33:00,
2013-09-27 01:34:00,45.2,44.6,30.14,NE,36,0.0,2.2,98,0.00,,,0.00,0.00,VWS V14.01,2013-09-27 05:34:00,
2013-09-27 01:36:00,45.2,44.4,30.13,West,272,0.0,2.2,97,0.00,,,0.00,0.00,VWS V14.01,2013-09-27 05:36:00,
2013-09-27 01:37:00,46.2,45.5,30.14,West,272,0.0,2.2,97,0.00,,,0.00,0.00,VWS V14.01,2013-09-27 05:37:00,
2013-09-27 01:38:00,46.7,45.3,30.13,West,273,0.0,2.2,95,0.00,,,0.00,0.00,VWS V14.01,2013-09-27 05:38:00,
2013-09-27 01:40:00,46.5,46.2,30.14,West,272,0.0,2.2,99,0.00,,,0.00,0.73,VWS V14.01,2013-09-27 05:40:00,
2013-09-27 01:41:00,46.1,45.8,30.14,West,272,0.0,2.2,99,0.00,,,0.00,0.73,VWS V14.01,2013-09-27 05:41:00,
2013-09-27 01:42:00,46.9,46.5,30.14,West,272,0.0,2.2,99,0.00,,,0.00,0.00,VWS V14.01,2013-09-27 05:42:00,
2013-09-27 01:43:00,47.0,46.7,30.14,West,273,0.0,2.2,99,0.00,,,0.00,0.00,VWS V14.01,2013-09-27 05:43:00,
2013-09-27 01:44:00,46.5,46.3,30.14,West,273,0.0,2.2,99,0.00,,,0.00,0.00,VWS V14.01,2013-09-27 05:44:00,
2013-09-27 01:47:00,46.7,46.5,30.13,West,273,0.0,2.2,99,0.00,,,0.00,0.00,VWS V14.01,2013-09-27 05:47:00,
2013-09-27 01:49:00,46.7,46.5,30.14,West,273,0.0,2.2,99,0.00,,,0.00,0.00,VWS V14.01,2013-09-27 05:49:00,
2013-09-27 01:51:00,46.7,46.6,30.14,West,273,0.0,2.2,100,0.00,,,0.00,0.12,VWS V14.01,2013-09-27 05:51:00,
2013-09-27 01:53:00,46.4,46.3,30.13,West,273,0.0,2.2,100,0.00,,,0.00,0.00,VWS V14.01,2013-09-27 05:53:00,
2013-09-27 01:54:00,46.2,46.1,30.14,West,273,0.0,2.2,100,0.00,,,0.00,0.00,VWS V14.01,2013-09-27 05:54:00,
2013-09-27 01:56:00,45.0,44.7,30.14,West,273,0.0,2.2,99,0.00,,,0.00,0.00,VWS V14.01,2013-09-27 05:56:00,
2013-09-27 01:58:00,44.5,44.0,30.14,West,273,0.0,2.2,98,0.00,,,0.00,0.00,VWS V14.01,2013-09-27 05:58:00,
2013-09-27 02:01:00,45.2,44.8,30.14,West,273,0.0,2.2,99,0.00,,,0.00,0.00,VWS V14.01,2013-09-27 06:01:00,
2013-09-27 02:03:00,44.3,43.9,30.14,West,273,0.0,0.0,98,0.00,,,0.00,0.00,VWS V14.01,2013-09-27 06:03:00,
2013-09-27 02:04:00,44.2,43.7,30.14,West,273,0.0,0.0,98,0.00,,,0.00,0.00,VWS V14.01,2013-09-27 06:04:00,
2013-09-27 02:06:00,43.7,43.1,30.14,West,273,0.0,0.0,98,0.00,,,0.00,0.00,VWS V14.01,2013-09-27 06:06:00,
2013-09-27 02:09:00,43.4,42.7,30.14,West,273,0.0,0.0,97,0.00,,,0.00,0.00,VWS V14.01,2013-09-27 06:09:00,
2013-09-27 02:10:00,43.7,42.9,30.14,West,273,0.0,0.0,97,0.00,,,0.00,0.00,VWS V14.01,2013-09-27 06:10:00,
2013-09-27 02:11:00,43.6,43.0,30.14,West,273,0.0,0.0,98,0.00,,,0.00,0.00,VWS V14.01,2013-09-27 06:11:00,
2013-09-27 02:12:00,43.6,43.0,30.14,West,273,0.0,0.0,98,0.00,,,0.00,0.00,VWS V14.01,2013-09-27 06:12:00,
2013-09-27 02:14:00,43.7,43.3,30.15,West,273,0.0,0.0,98,0.00,,,0.00,0.00,VWS V14.01,2013-09-27 06:14:00,
2013-09-27 02:17:00,44.5,44.2,30.15,West,273,0.0,0.0,99,0.00,,,0.00,0.06,VWS V14.01,2013-09-27 06:17:00,
2013-09-27 02:18:00,44.7,44.7,30.16,West,273,0.0,0.0,100,0.00,,,0.00,0.00,VWS V14.01,2013-09-27 06:18:00,
2013-09-27 02:20:00,45.7,45.0,30.15,NNE,14,0.0,0.0,97,0.00,,,0.00,0.00,VWS V14.01,2013-09-27 06:20:00,
2013-09-27 02:22:00,45.7,45.7,30.15,NNE,14,1.3,1.6,100,0.00,,,0.00,0.00,VWS V14.01,2013-09-27 06:22:00,
2013-09-27 02:23:00,45.8,45.8,30.15,NNE,14,2.0,2.2,100,0.00,,,0.00,0.00,VWS V14.01,2013-09-27 06:23:00,
2013-09-27 02:24:00,46.1,46.1,30.15,NNE,14,0.0,2.0,100,0.00,,,0.00,0.43,VWS V14.01,2013-09-27 06:24:00,
2013-09-27 02:26:00,46.4,46.4,30.14,NNE,14,0.0,1.8,100,0.00,,,0.00,0.00,VWS V14.01,2013-09-27 06:26:00,
2013-09-27 02:28:00,46.1,46.1,30.15,NNE,14,2.0,2.0,100,0.00,,,0.00,0.00,VWS V14.01,2013-09-27 06:28:00,
2013-09-27 02:29:00,46.1,46.1,30.15,NNE,14,2.0,2.0,100,0.00,,,0.00,0.73,VWS V14.01,2013-09-27 06:29:00,
2013-09-27 02:30:00,46.1,46.1,30.15,NNE,14,2.0,2.0,100,0.00,,,0.00,0.73,VWS V14.01,2013-09-27 06:30:00,
2013-09-27 02:32:00,45.1,45.1,30.15,NNE,14,0.0,0.0,100,0.00,,,0.00,0.00,VWS V14.01,2013-09-27 06:32:00,
2013-09-27 02:35:00,44.4,44.3,30.15,NNE,14,0.0,0.0,100,0.00,,,0.00,0.00,VWS V14.01,2013-09-27 06:35:00,
2013-09-27 02:36:00,44.2,44.0,30.15,NNE,14,0.0,0.0,99,0.00,,,0.00,0.00,VWS V14.01,2013-09-27 06:36:00,
2013-09-27 02:37:00,43.3,43.0,30.15,NNE,14,0.0,0.0,99,0.00,,,0.00,0.00,VWS V14.01,2013-09-27 06:37:00,
2013-09-27 02:38:00,43.3,43.0,30.15,NNE,14,0.0,0.0,99,0.00,,,0.00,0.00,VWS V14.01,2013-09-27 06:38:00,
2013-09-27 02:41:00,42.7,42.1,30.15,NNE,14,0.0,0.0,98,0.00,,,0.00,0.00,VWS V14.01,2013-09-27 06:41:00,
2013-09-27 02:42:00,43.3,42.7,30.15,NNE,14,0.0,0.0,98,0.00,,,0.00,0.00,VWS V14.01,2013-09-27 06:42:00,
2013-09-27 02:43:00,43.1,42.5,30.15,NNE,14,0.0,0.0,98,0.00,,,0.00,0.06,VWS V14.01,2013-09-27 06:43:00,
2013-09-27 02:44:00,43.0,42.4,30.15,NNE,14,0.0,0.0,98,0.00,,,0.00,0.12,VWS V14.01,2013-09-27 06:44:00,
2013-09-27 02:47:00,43.8,43.5,30.16,NNE,14,0.0,0.0,99,0.00,,,0.00,0.00,VWS V14.01,2013-09-27 06:47:00,
2013-09-27 02:48:00,44.0,43.8,30.16,NNE,14,0.0,0.0,99,0.00,,,0.00,0.43,VWS V14.01,2013-09-27 06:48:00,
2013-09-27 02:49:00,44.0,43.8,30.16,NNE,14,0.0,0.0,99,0.00,,,0.00,0.43,VWS V14.01,2013-09-27 06:49:00,
2013-09-27 02:50:00,44.2,44.2,30.16,NNE,14,0.0,0.0,100,0.00,,,0.00,0.00,VWS V14.01,2013-09-27 06:50:00,
2013-09-27 02:51:00,44.4,44.4,30.16,NNE,14,0.0,0.0,100,0.00,,,0.00,0.00,VWS V14.01,2013-09-27 06:51:00,
2013-09-27 02:53:00,44.2,44.2,30.20,NNE,14,0.0,0.0,100,0.00,,,0.00,0.00,VWS V14.01,2013-09-27 06:53:00,
2013-09-27 02:54:00,44.2,44.2,30.15,NNE,14,0.0,0.0,100,0.00,,,0.00,0.00,VWS V14.01,2013-09-27 06:54:00,
2013-09-27 02:56:00,44.3,44.3,30.15,NNE,14,0.0,0.0,100,0.00,,,0.00,0.00,VWS V14.01,2013-09-27 06:56:00,
2013-09-27 02:58:00,44.7,44.7,30.20,NNE,14,0.0,0.0,100,0.00,,,0.00,0.12,VWS V14.01,2013-09-27 06:58:00,
2013-09-27 03:01:00,45.1,45.1,30.15,NNE,14,0.0,0.0,100,0.00,,,0.00,0.73,VWS V14.01,2013-09-27 07:01:00,
2013-09-27 03:02:00,45.6,45.6,30.16,NNE,14,0.0,0.0,100,0.00,,,0.00,0.00,VWS V14.01,2013-09-27 07:02:00,
2013-09-27 03:04:00,46.6,46.6,30.15,NE,36,2.2,2.2,100,0.00,,,0.00,0.00,VWS V14.01,2013-09-27 07:04:00,
2013-09-27 03:06:00,46.9,46.9,30.15,NE,36,2.0,2.2,100,0.00,,,0.00,0.00,VWS V14.01,2013-09-27 07:06:00,
2013-09-27 03:07:00,46.8,46.8,30.15,NE,36,2.2,2.2,100,0.00,,,0.00,0.00,VWS V14.01,2013-09-27 07:07:00,
2013-09-27 03:08:00,46.5,46.5,30.16,NE,36,2.2,2.2,100,0.00,,,0.00,0.00,VWS V14.01,2013-09-27 07:08:00,
2013-09-27 03:11:00,45.6,45.6,30.15,NE,36,2.2,2.2,100,0.00,,,0.00,0.00,VWS V14.01,2013-09-27 07:11:00,
2013-09-27 03:12:00,46.6,46.6,30.14,NE,36,2.0,2.0,100,0.00,,,0.00,0.00,VWS V14.01,2013-09-27 07:12:00,
2013-09-27 03:13:00,45.3,45.3,30.15,NE,36,0.0,2.0,100,0.00,,,0.00,0.00,VWS V14.01,2013-09-27 07:13:00,
2013-09-27 03:14:00,44.3,44.3,30.15,NE,36,0.0,0.0,100,0.00,,,0.00,0.00,VWS V14.01,2013-09-27 07:14:00,
2013-09-27 03:17:00,43.8,43.8,30.15,NE,36,0.0,0.0,100,0.00,,,0.00,0.00,VWS V14.01,2013-09-27 07:17:00,
2013-09-27 03:18:00,43.9,43.9,30.15,NE,36,0.0,0.0,100,0.00,,,0.00,0.00,VWS V14.01,2013-09-27 07:18:00,
2013-09-27 03:19:00,44.0,44.0,30.15,NE,36,0.0,0.0,100,0.00,,,0.00,0.00,VWS V14.01,2013-09-27 07:19:00,
2013-09-27 03:24:00,43.7,43.7,30.15,NE,36,0.0,0.0,100,0.00,,,0.00,0.00,VWS V14.01,2013-09-27 07:24:00,
2013-09-27 03:25:00,42.8,42.9,30.15,NE,36,0.0,0.0,100,0.00,,,0.00,0.00,VWS V14.01,2013-09-27 07:25:00,
2013-09-27 03:27:00,44.0,44.0,30.15,NE,36,0.0,0.0,100,0.00,,,0.00,0.00,VWS V14.01,2013-09-27 07:27:00,
2013-09-27 03:29:00,44.2,44.2,30.16,NE,36,0.0,0.0,100,0.00,,,0.00,0.00,VWS V14.01,2013-09-27 07:29:00,
2013-09-27 03:30:00,43.8,43.8,30.15,NE,36,0.0,0.0,100,0.00,,,0.00,0.00,VWS V14.01,2013-09-27 07:30:00,
2013-09-27 03:31:00,43.9,43.9,30.14,NE,36,0.0,0.0,100,0.00,,,0.00,0.00,VWS V14.01,2013-09-27 07:31:00,
2013-09-27 03:33:00,44.0,44.0,30.15,NE,36,0.0,0.0,100,0.00,,,0.00,0.00,VWS V14.01,2013-09-27 07:33:00,
2013-09-27 03:34:00,43.7,43.7,30.15,NE,36,0.0,0.0,100,0.00,,,0.00,0.73,VWS V14.01,2013-09-27 07:34:00,
2013-09-27 03:36:00,44.6,44.6,30.15,NE,40,0.0,0.0,100,0.00,,,0.00,0.00,VWS V14.01,2013-09-27 07:36:00,
2013-09-27 03:38:00,44.6,44.6,30.15,NE,39,0.0,0.0,100,0.00,,,0.00,0.00,VWS V14.01,2013-09-27 07:38:00,
2013-09-27 03:39:00,44.4,44.4,30.16,NE,41,0.0,0.0,100,0.00,,,0.00,0.00,VWS V14.01,2013-09-27 07:39:00,
2013-09-27 03:40:00,44.8,44.8,30.16,NE,41,0.0,0.0,100,0.00,,,0.00,0.00,VWS V14.01,2013-09-27 07:40:00,
2013-09-27 03:42:00,44.2,44.2,30.15,NE,40,0.0,0.0,100,0.00,,,0.00,0.00,VWS V14.01,2013-09-27 07:42:00,
2013-09-27 03:45:00,44.3,44.3,30.14,NE,41,0.0,0.0,100,0.00,,,0.00,0.00,VWS V14.01,2013-09-27 07:45:00,
2013-09-27 03:46:00,44.3,44.3,30.16,NE,40,0.0,0.0,100,0.00,,,0.00,0.00,VWS V14.01,2013-09-27 07:46:00,
2013-09-27 03:47:00,44.3,44.3,30.16,NE,40,0.0,0.0,100,0.00,,,0.00,0.00,VWS V14.01,2013-09-27 07:47:00,
2013-09-27 03:48:00,44.5,44.5,30.16,NE,39,0.0,0.0,100,0.00,,,0.00,0.00,VWS V14.01,2013-09-27 07:48:00,
2013-09-27 03:50:00,44.1,44.1,30.15,NNW,328,0.0,0.0,100,0.00,,,0.00,0.00,VWS V14.01,2013-09-27 07:50:00,
2013-09-27 03:51:00,44.0,44.0,30.16,NNW,328,0.0,0.0,100,0.00,,,0.00,0.00,VWS V14.01,2013-09-27 07:51:00,
2013-09-27 03:52:00,43.8,43.8,30.16,NNW,328,0.0,0.0,100,0.00,,,0.00,0.00,VWS V14.01,2013-09-27 07:52:00,
2013-09-27 03:53:00,43.5,43.5,30.16,NNW,328,0.0,0.0,100,0.00,,,0.00,0.00,VWS V14.01,2013-09-27 07:53:00,
2013-09-27 03:54:00,43.6,43.6,30.16,NNW,328,0.0,0.0,100,0.00,,,0.00,0.73,VWS V14.01,2013-09-27 07:54:00,
2013-09-27 03:55:00,43.5,43.5,30.16,NNW,328,0.0,0.0,100,0.00,,,0.00,0.00,VWS V14.01,2013-09-27 07:55:00,
2013-09-27 03:57:00,43.1,43.1,30.16,NNW,328,0.0,0.0,100,0.00,,,0.00,0.00,VWS V14.01,2013-09-27 07:57:00,
2013-09-27 03:58:00,43.1,43.1,30.16,NNW,328,0.0,0.0,100,0.00,,,0.00,0.00,VWS V14.01,2013-09-27 07:58:00,
2013-09-27 03:59:00,43.0,43.0,30.16,NNW,328,0.0,0.0,100,0.00,,,0.00,0.00,VWS V14.01,2013-09-27 07:59:00,
2013-09-27 04:00:00,42.8,42.8,30.16,NNW,328,0.0,0.0,100,0.00,,,0.00,0.00,VWS V14.01,2013-09-27 08:00:00,
2013-09-27 04:01:00,43.3,43.3,30.16,NNW,328,0.0,0.0,100,0.00,,,0.00,0.00,VWS V14.01,2013-09-27 08:01:00,
2013-09-27 04:02:00,44.1,43.9,30.16,NNW,328,0.0,0.0,99,0.00,,,0.00,0.06,VWS V14.01,2013-09-27 08:02:00,
2013-09-27 04:04:00,44.5,44.5,30.16,NNE,27,1.0,1.0,100,0.00,,,0.00,0.00,VWS V14.01,2013-09-27 08:04:00,
2013-09-27 04:05:00,45.5,45.5,30.16,NNE,27,0.0,1.0,100,0.00,,,0.00,0.00,VWS V14.01,2013-09-27 08:05:00,
2013-09-27 04:06:00,46.5,46.5,30.17,NNE,33,2.5,2.5,100,0.00,,,0.00,0.00,VWS V14.01,2013-09-27 08:06:00,
2013-09-27 04:08:00,48.5,48.5,30.15,NE,44,3.0,3.0,100,0.00,,,0.00,0.00,VWS V14.01,2013-09-27 08:08:00,
2013-09-27 04:11:00,49.0,49.0,30.16,NE,50,3.0,3.0,100,0.00,,,0.00,0.00,VWS V14.01,2013-09-27 08:11:00,
2013-09-27 04:12:00,48.6,48.6,30.16,NE,50,3.4,3.4,100,0.00,,,0.00,0.00,VWS V14.01,2013-09-27 08:12:00,
2013-09-27 04:14:00,47.5,47.5,30.16,NE,44,3.0,3.2,100,0.00,,,0.00,0.00,VWS V14.01,2013-09-27 08:14:00,
2013-09-27 04:15:00,47.6,47.6,30.17,NE,49,2.2,2.8,100,0.00,,,0.00,0.00,VWS V14.01,2013-09-27 08:15:00,
2013-09-27 04:16:00,48.7,48.7,30.16,NE,50,2.8,2.8,100,0.00,,,0.00,0.00,VWS V14.01,2013-09-27 08:16:00,
2013-09-27 04:17:00,46.6,46.6,30.16,NE,53,2.2,2.2,100,0.00,,,0.00,0.00,VWS V14.01,2013-09-27 08:17:00,
2013-09-27 04:18:00,47.1,47.1,30.16,NE,53,2.8,2.8,100,0.00,,,0.00,0.00,VWS V14.01,2013-09-27 08:18:00,
2013-09-27 04:19:00,47.6,47.6,30.15,NE,53,2.7,2.8,100,0.00,,,0.00,0.00,VWS V14.01,2013-09-27 08:19:00,
2013-09-27 04:20:00,48.2,48.2,30.16,NE,53,2.7,2.7,100,0.00,,,0.00,0.00,VWS V14.01,2013-09-27 08:20:00,
2013-09-27 04:21:00,48.9,48.9,30.15,NE,53,2.8,2.8,100,0.00,,,0.00,0.00,VWS V14.01,2013-09-27 08:21:00,
2013-09-27 04:22:00,49.7,49.7,30.15,NE,53,2.5,2.7,100,0.00,,,0.00,0.00,VWS V14.01,2013-09-27 08:22:00,
2013-09-27 04:24:00,48.8,48.8,30.15,NE,55,2.7,3.4,100,0.00,,,0.00,0.00,VWS V14.01,2013-09-27 08:24:00,
2013-09-27 04:26:00,50.2,49.9,30.15,NE,54,3.0,3.2,99,0.00,,,0.00,0.00,VWS V14.01,2013-09-27 08:26:00,
2013-09-27 04:27:00,48.8,48.3,30.15,NE,54,3.2,3.2,98,0.00,,,0.00,0.00,VWS V14.01,2013-09-27 08:27:00,
2013-09-27 04:28:00,49.4,48.5,30.15,ENE,57,3.2,3.2,97,0.00,,,0.00,0.12,VWS V14.01,2013-09-27 08:28:00,
2013-09-27 04:29:00,48.7,47.6,30.15,ENE,60,3.2,3.2,96,0.00,,,0.00,0.43,VWS V14.01,2013-09-27 08:29:00,
2013-09-27 04:32:00,48.7,46.8,30.15,NE,56,2.3,3.7,93,0.00,,,0.00,0.00,VWS V14.01,2013-09-27 08:32:00,
2013-09-27 04:33:00,49.7,47.8,30.14,ENE,59,3.9,3.9,93,0.00,,,0.00,0.00,VWS V14.01,2013-09-27 08:33:00,
2013-09-27 04:34:00,48.6,46.5,30.14,ENE,73,2.3,2.8,92,0.00,,,0.00,0.00,VWS V14.01,2013-09-27 08:34:00,
2013-09-27 04:37:00,49.4,46.7,30.14,NE,54,2.7,2.7,91,0.00,,,0.00,0.00,VWS V14.01,2013-09-27 08:37:00,
2013-09-27 04:38:00,49.8,47.2,30.14,NE,51,2.8,2.8,91,0.00,,,0.00,0.00,VWS V14.01,2013-09-27 08:38:00,
2013-09-27 04:40:00,49.0,46.2,30.14,NE,50,2.7,2.7,90,0.00,,,0.00,0.00,VWS V14.01,2013-09-27 08:40:00,
2013-09-27 04:43:00,50.2,47.7,30.15,NE,40,1.5,2.3,91,0.00,,,0.00,0.12,VWS V14.01,2013-09-27 08:43:00,
2013-09-27 04:44:00,49.9,47.3,30.15,NE,48,1.8,2.3,91,0.00,,,0.00,0.00,VWS V14.01,2013-09-27 08:44:00,
2013-09-27 04:45:00,50.3,46.9,30.15,NE,45,1.8,1.8,88,0.00,,,0.00,0.00,VWS V14.01,2013-09-27 08:45:00,
2013-09-27 04:48:00,50.0,46.9,30.15,NE,52,2.0,2.0,89,0.00,,,0.00,0.00,VWS V14.01,2013-09-27 08:48:00,
2013-09-27 04:49:00,50.0,47.2,30.15,NE,43,0.0,2.0,90,0.00,,,0.00,0.00,VWS V14.01,2013-09-27 08:49:00,
2013-09-27 04:50:00,48.3,45.3,30.15,NE,43,0.0,0.0,90,0.00,,,0.00,0.00,VWS V14.01,2013-09-27 08:50:00,
2013-09-27 04:53:00,45.7,42.0,30.16,NE,43,0.0,0.0,87,0.00,,,0.00,0.00,VWS V14.01,2013-09-27 08:53:00,
2013-09-27 04:54:00,45.7,42.2,30.15,NE,43,0.0,0.0,87,0.00,,,0.00,0.00,VWS V14.01,2013-09-27 08:54:00,
2013-09-27 04:55:00,45.7,42.5,30.15,NE,43,0.0,0.0,88,0.00,,,0.00,0.00,VWS V14.01,2013-09-27 08:55:00,
2013-09-27 04:56:00,44.4,41.1,30.15,NE,43,0.0,0.0,88,0.00,,,0.00,0.43,VWS V14.01,2013-09-27 08:56:00,
2013-09-27 04:59:00,45.2,42.9,30.15,NE,43,0.0,0.0,92,0.00,,,0.00,0.00,VWS V14.01,2013-09-27 08:59:00,
2013-09-27 05:00:00,45.0,43.0,30.15,NE,43,0.0,0.0,93,0.00,,,0.00,0.00,VWS V14.01,2013-09-27 09:00:00,
2013-09-27 05:02:00,45.6,44.0,30.19,NE,43,0.0,0.0,94,0.00,,,0.00,0.00,VWS V14.01,2013-09-27 09:02:00,
2013-09-27 05:04:00,48.4,47.6,30.16,NE,43,0.0,0.0,97,0.00,,,0.00,0.00,VWS V14.01,2013-09-27 09:04:00,
2013-09-27 05:05:00,48.0,45.9,30.16,NE,43,0.0,0.0,92,0.00,,,0.00,0.00,VWS V14.01,2013-09-27 09:05:00,
2013-09-27 05:06:00,47.1,46.4,30.16,NE,43,0.0,0.0,98,0.00,,,0.00,0.00,VWS V14.01,2013-09-27 09:06:00,
2013-09-27 05:07:00,48.1,47.5,30.16,NE,43,0.0,0.0,98,0.00,,,0.00,0.00,VWS V14.01,2013-09-27 09:07:00,
2013-09-27 05:09:00,44.9,43.9,30.15,NE,43,0.0,0.0,96,0.00,,,0.00,0.00,VWS V14.01,2013-09-27 09:09:00,
2013-09-27 05:11:00,44.4,42.8,30.16,NE,43,0.0,0.0,94,0.00,,,0.00,0.00,VWS V14.01,2013-09-27 09:11:00,
2013-09-27 05:12:00,45.2,43.9,30.15,NE,43,0.0,0.0,95,0.00,,,0.00,0.00,VWS V14.01,2013-09-27 09:12:00,
2013-09-27 05:14:00,45.2,44.1,30.15,NE,43,0.0,0.0,96,0.00,,,0.00,0.00,VWS V14.01,2013-09-27 09:14:00,
2013-09-27 05:16:00,45.0,44.2,30.16,NNW,333,1.6,1.6,97,0.00,,,0.00,0.00,VWS V14.01,2013-09-27 09:16:00,
2013-09-27 05:17:00,44.7,44.1,30.16,NNW,332,0.0,0.0,98,0.00,,,0.00,0.00,VWS V14.01,2013-09-27 09:17:00,
2013-09-27 05:19:00,44.0,43.6,30.16,NNW,327,1.3,1.5,98,0.00,,,0.00,0.00,VWS V14.01,2013-09-27 09:19:00,
2013-09-27 05:22:00,45.6,45.6,30.16,NNW,327,2.0,2.2,100,0.00,,,0.00,0.00,VWS V14.01,2013-09-27 09:22:00,
2013-09-27 05:23:00,45.5,45.5,30.17,NNW,327,1.3,1.5,100,0.00,,,0.00,0.00,VWS V14.01,2013-09-27 09:23:00,
2013-09-27 05:24:00,45.7,45.7,30.17,NNW,327,0.0,1.5,100,0.00,,,0.00,0.00,VWS V14.01,2013-09-27 09:24:00,
2013-09-27 05:25:00,45.5,45.5,30.16,NNW,327,0.0,0.0,100,0.00,,,0.00,0.00,VWS V14.01,2013-09-27 09:25:00,
2013-09-27 05:28:00,45.3,45.3,30.17,NNW,327,0.0,0.0,100,0.00,,,0.00,0.00,VWS V14.01,2013-09-27 09:28:00,
2013-09-27 05:29:00,45.0,45.0,30.16,NNW,327,0.0,0.0,100,0.00,,,0.00,0.00,VWS V14.01,2013-09-27 09:29:00,
2013-09-27 05:30:00,45.0,45.0,30.16,NNW,327,0.0,0.0,100,0.00,,,0.00,0.00,VWS V14.01,2013-09-27 09:30:00,
2013-09-27 05:32:00,45.4,45.4,30.16,NNW,327,0.0,0.0,100,0.00,,,0.00,0.00,VWS V14.01,2013-09-27 09:32:00,
2013-09-27 05:34:00,45.1,45.1,30.17,NNW,327,0.0,0.0,100,0.00,,,0.00,0.12,VWS V14.01,2013-09-27 09:34:00,
2013-09-27 05:35:00,44.9,44.9,30.17,NE,39,0.0,0.0,100,0.00,,,0.00,0.00,VWS V14.01,2013-09-27 09:35:00,
2013-09-27 05:36:00,44.3,44.3,30.17,NE,39,0.0,0.0,100,0.00,,,0.00,0.43,VWS V14.01,2013-09-27 09:36:00,
2013-09-27 05:37:00,44.5,44.5,30.17,NE,39,0.0,0.0,100,0.00,,,0.00,0.00,VWS V14.01,2013-09-27 09:37:00,
2013-09-27 05:40:00,44.8,44.8,30.17,NE,41,0.0,0.0,100,0.00,,,0.00,0.37,VWS V14.01,2013-09-27 09:40:00,
2013-09-27 05:41:00,44.8,44.8,30.17,NE,41,0.0,0.0,100,0.00,,,0.00,0.37,VWS V14.01,2013-09-27 09:41:00,
2013-09-27 05:42:00,43.8,43.8,30.17,NE,40,0.0,0.0,100,0.00,,,0.00,0.00,VWS V14.01,2013-09-27 09:42:00,
2013-09-27 05:46:00,42.9,42.9,30.16,NE,39,0.0,0.0,100,0.00,,,0.00,0.00,VWS V14.01,2013-09-27 09:46:00,
2013-09-27 05:47:00,43.1,43.1,30.17,NE,40,0.0,0.0,100,0.00,,,0.00,0.00,VWS V14.01,2013-09-27 09:47:00,
2013-09-27 05:48:00,43.8,43.8,30.18,NE,39,0.0,0.0,100,0.00,,,0.00,0.00,VWS V14.01,2013-09-27 09:48:00,
2013-09-27 05:51:00,44.4,44.4,30.17,NE,39,0.0,0.0,100,0.00,,,0.00,0.00,VWS V14.01,2013-09-27 09:51:00,
2013-09-27 05:52:00,44.1,44.1,30.17,NE,39,0.0,0.0,100,0.00,,,0.00,0.00,VWS V14.01,2013-09-27 09:52:00,
2013-09-27 05:54:00,44.1,44.1,30.17,NE,40,0.0,0.0,100,0.00,,,0.00,0.00,VWS V14.01,2013-09-27 09:54:00,
2013-09-27 05:57:00,43.5,43.5,30.17,NE,41,0.0,0.0,100,0.00,,,0.00,0.00,VWS V14.01,2013-09-27 09:57:00,
2013-09-27 05:59:00,43.7,43.7,30.17,NE,39,0.0,0.0,100,0.00,,,0.00,0.00,VWS V14.01,2013-09-27 09:59:00,
2013-09-27 06:00:00,43.3,43.3,30.17,NE,40,0.0,0.0,100,0.00,,,0.00,0.00,VWS V14.01,2013-09-27 10:00:00,
2013-09-27 06:02:00,43.2,43.2,30.16,NE,40,0.0,0.0,100,0.00,,,0.00,0.00,VWS V14.01,2013-09-27 10:02:00,
2013-09-27 06:05:00,43.3,43.3,30.17,NE,40,0.0,0.0,100,0.00,,,0.00,0.00,VWS V14.01,2013-09-27 10:05:00,
2013-09-27 06:07:00,43.0,42.0,30.17,NE,39,0.0,0.0,96,0.00,,,0.00,0.00,VWS V14.01,2013-09-27 10:07:00,
2013-09-27 06:10:00,42.3,42.3,30.18,NE,39,0.0,0.0,100,0.00,,,0.00,0.00,VWS V14.01,2013-09-27 10:10:00,
2013-09-27 06:11:00,42.0,42.0,30.17,NE,40,0.0,0.0,100,0.00,,,0.00,0.00,VWS V14.01,2013-09-27 10:11:00,
2013-09-27 06:13:00,42.6,42.6,30.17,NE,39,0.0,0.0,100,0.00,,,0.00,0.00,VWS V14.01,2013-09-27 10:13:00,
2013-09-27 06:16:00,43.5,43.5,30.18,NE,40,0.0,0.0,100,0.00,,,0.00,0.00,VWS V14.01,2013-09-27 10:16:00,
2013-09-27 06:17:00,43.5,43.5,30.18,NE,40,0.0,0.0,100,0.00,,,0.00,0.00,VWS V14.01,2013-09-27 10:17:00,
2013-09-27 06:18:00,43.8,43.8,30.18,NE,40,0.0,0.0,100,0.00,,,0.00,0.00,VWS V14.01,2013-09-27 10:18:00,
2013-09-27 06:22:00,43.4,43.4,30.17,NE,39,0.0,0.0,100,0.00,,,0.00,0.00,VWS V14.01,2013-09-27 10:22:00,
2013-09-27 06:23:00,43.6,43.6,30.17,NE,39,0.0,0.0,100,0.00,,,0.00,0.00,VWS V14.01,2013-09-27 10:23:00,
2013-09-27 06:24:00,43.6,43.6,30.17,NE,39,0.0,0.0,100,0.00,,,0.00,0.00,VWS V14.01,2013-09-27 10:24:00,
2013-09-27 06:27:00,43.3,43.0,30.18,NE,40,0.0,0.0,99,0.00,,,0.00,0.00,VWS V14.01,2013-09-27 10:27:00,
2013-09-27 06:28:00,43.5,43.5,30.18,NE,39,0.0,0.0,100,0.00,,,0.00,0.00,VWS V14.01,2013-09-27 10:28:00,
2013-09-27 06:29:00,43.4,43.4,30.18,NE,41,0.0,0.0,100,0.00,,,0.00,0.00,VWS V14.01,2013-09-27 10:29:00,
2013-09-27 06:30:00,43.8,43.8,30.18,NE,40,0.0,0.0,100,0.00,,,0.00,0.00,VWS V14.01,2013-09-27 10:30:00,
2013-09-27 06:33:00,44.0,44.0,30.17,NNW,335,0.0,0.0,100,0.00,,,0.00,0.00,VWS V14.01,2013-09-27 10:33:00,
2013-09-27 06:35:00,43.9,43.9,30.18,NNW,333,2.5,2.5,100,0.00,,,0.00,0.00,VWS V14.01,2013-09-27 10:35:00,
2013-09-27 06:37:00,44.8,44.8,30.19,NW,325,2.7,3.2,100,0.00,,,0.00,0.00,VWS V14.01,2013-09-27 10:37:00,
2013-09-27 06:38:00,45.0,44.6,30.18,NW,325,3.0,3.0,99,0.00,,,0.00,0.00,VWS V14.01,2013-09-27 10:38:00,
2013-09-27 06:40:00,44.7,44.7,30.18,NW,325,2.7,3.0,100,0.00,,,0.00,0.00,VWS V14.01,2013-09-27 10:40:00,
2013-09-27 06:41:00,44.9,44.9,30.18,NW,325,2.7,2.7,100,0.00,,,0.00,0.00,VWS V14.01,2013-09-27 10:41:00,
2013-09-27 06:42:00,45.0,45.0,30.17,NW,325,2.0,2.5,100,0.00,,,0.00,0.06,VWS V14.01,2013-09-27 10:42:00,
2013-09-27 06:44:00,44.7,44.7,30.17,NW,325,0.0,2.0,100,0.00,,,0.00,0.00,VWS V14.01,2013-09-27 10:44:00,
2013-09-27 06:46:00,43.9,43.9,30.18,NW,325,0.0,0.0,100,0.00,,,0.00,0.00,VWS V14.01,2013-09-27 10:46:00,
2013-09-27 06:47:00,44.5,44.5,30.18,NW,325,0.0,0.0,100,0.00,,,0.00,0.00,VWS V14.01,2013-09-27 10:47:00,
2013-09-27 06:49:00,44.2,44.2,30.18,NW,325,0.0,0.0,100,0.00,,,0.00,0.43,VWS V14.01,2013-09-27 10:49:00,
2013-09-27 06:50:00,44.5,44.5,30.18,NNE,14,1.6,1.6,100,0.00,,,0.00,0.43,VWS V14.01,2013-09-27 10:50:00,
2013-09-27 06:51:00,44.5,44.5,30.18,NNE,14,0.0,0.0,100,0.00,,,0.00,0.00,VWS V14.01,2013-09-27 10:51:00,
2013-09-27 06:52:00,43.9,43.9,30.18,NNE,14,0.0,0.0,100,0.00,,,0.00,0.00,VWS V14.01,2013-09-27 10:52:00,
2013-09-27 06:54:00,44.2,44.2,30.19,NNE,14,0.0,0.0,100,0.00,,,0.00,0.12,VWS V14.01,2013-09-27 10:54:00,
2013-09-27 06:55:00,43.9,43.9,30.22,NNE,14,0.0,0.0,100,0.00,,,0.00,0.12,VWS V14.01,2013-09-27 10:55:00,
2013-09-27 06:57:00,44.0,44.0,30.19,NNE,14,0.0,0.0,100,0.00,,,0.00,0.00,VWS V14.01,2013-09-27 10:57:00,
2013-09-27 07:00:00,42.6,42.6,30.18,NNE,14,0.0,0.0,100,0.00,,,0.00,0.06,VWS V14.01,2013-09-27 11:00:00,
2013-09-27 07:01:00,43.3,43.3,30.18,NNE,14,0.0,0.0,100,0.00,,,0.00,0.00,VWS V14.01,2013-09-27 11:01:00,
2013-09-27 07:02:00,43.5,43.5,30.19,NNE,14,0.0,0.0,100,0.00,,,0.00,0.00,VWS V14.01,2013-09-27 11:02:00,
2013-09-27 07:03:00,44.4,44.4,30.18,NNE,14,0.0,0.0,100,0.00,,,0.00,0.00,VWS V14.01,2013-09-27 11:03:00,
2013-09-27 07:06:00,44.5,44.5,30.19,NNE,14,0.0,0.0,100,0.00,,,0.00,0.00,VWS V14.01,2013-09-27 11:06:00,
2013-09-27 07:08:00,44.3,44.3,30.19,NNE,14,0.0,0.0,100,0.00,,,0.00,0.00,VWS V14.01,2013-09-27 11:08:00,
2013-09-27 07:09:00,44.5,44.5,30.19,NNE,14,0.0,0.0,100,0.00,,,0.00,0.00,VWS V14.01,2013-09-27 11:09:00,
2013-09-27 07:10:00,44.1,44.1,30.19,NNE,14,0.0,0.0,100,0.00,,,0.00,0.06,VWS V14.01,2013-09-27 11:10:00,
2013-09-27 07:11:00,43.6,43.6,30.19,NNE,14,0.0,0.0,100,0.00,,,0.00,0.00,VWS V14.01,2013-09-27 11:11:00,
2013-09-27 07:13:00,43.8,43.8,30.19,NNE,14,0.0,0.0,100,0.00,,,0.00,0.00,VWS V14.01,2013-09-27 11:13:00,
2013-09-27 07:14:00,43.2,42.7,30.20,NNE,14,0.0,0.0,98,0.00,,,0.00,0.00,VWS V14.01,2013-09-27 11:14:00,
2013-09-27 07:16:00,43.4,43.4,30.19,NNE,14,0.0,0.0,100,0.00,,,0.00,0.00,VWS V14.01,2013-09-27 11:16:00,
2013-09-27 07:17:00,43.2,43.2,30.19,NNE,14,0.0,0.0,100,0.00,,,0.00,0.31,VWS V14.01,2013-09-27 11:17:00,
2013-09-27 07:19:00,43.4,43.4,30.19,NNE,14,0.0,0.0,100,0.00,,,0.00,0.00,VWS V14.01,2013-09-27 11:19:00,
2013-09-27 07:20:00,43.1,43.1,30.19,NNE,14,0.0,0.0,100,0.00,,,0.00,0.79,VWS V14.01,2013-09-27 11:20:00,
2013-09-27 07:23:00,43.5,43.5,30.19,NNE,14,0.0,0.0,100,0.00,,,0.00,1.95,VWS V14.01,2013-09-27 11:23:00,
2013-09-27 07:24:00,44.8,44.8,30.20,NNE,14,0.0,0.0,100,0.00,,,0.00,2.26,VWS V14.01,2013-09-27 11:24:00,
2013-09-27 07:25:00,44.8,44.8,30.19,NNE,14,0.0,0.0,100,0.00,,,0.00,3.17,VWS V14.01,2013-09-27 11:25:00,
2013-09-27 07:26:00,45.0,45.0,30.19,NNE,14,0.0,0.0,100,0.00,,,0.00,2.26,VWS V14.01,2013-09-27 11:26:00,
2013-09-27 07:28:00,44.0,44.0,30.19,NNE,14,0.0,0.0,100,0.00,,,0.00,2.75,VWS V14.01,2013-09-27 11:28:00,
2013-09-27 07:29:00,45.3,45.3,30.19,NNE,14,0.0,0.0,100,0.00,,,0.00,3.48,VWS V14.01,2013-09-27 11:29:00,
2013-09-27 07:30:00,44.0,44.0,30.19,NNE,14,0.0,0.0,100,0.00,,,0.00,3.72,VWS V14.01,2013-09-27 11:30:00,
2013-09-27 07:31:00,44.4,44.4,30.19,NNE,14,0.0,0.0,100,0.00,,,0.00,4.70,VWS V14.01,2013-09-27 11:31:00,
2013-09-27 07:32:00,44.0,44.0,30.19,NNE,14,0.0,0.0,100,0.00,,,0.00,4.70,VWS V14.01,2013-09-27 11:32:00,
2013-09-27 07:35:00,43.9,43.9,30.20,NNE,14,0.0,0.0,100,0.00,,,0.00,6.90,VWS V14.01,2013-09-27 11:35:00,
2013-09-27 07:36:00,44.5,44.5,30.20,NNE,14,0.0,0.0,100,0.00,,,0.00,8.12,VWS V14.01,2013-09-27 11:36:00,
2013-09-27 07:37:00,44.5,44.5,30.19,NNE,14,0.0,0.0,100,0.00,,,0.00,9.58,VWS V14.01,2013-09-27 11:37:00,
2013-09-27 07:38:00,44.5,44.5,30.19,NNE,14,0.0,0.0,100,0.00,,,0.00,9.58,VWS V14.01,2013-09-27 11:38:00,
2013-09-27 07:40:00,44.5,44.2,30.20,NNE,14,0.0,0.0,99,0.00,,,0.00,19.35,VWS V14.01,2013-09-27 11:40:00,
2013-09-27 07:41:00,44.5,44.2,30.20,NNE,14,0.0,0.0,99,0.00,,,0.00,19.35,VWS V14.01,2013-09-27 11:41:00,
2013-09-27 07:43:00,43.9,43.9,30.20,NNE,14,0.0,0.0,100,0.00,,,0.00,24.97,VWS V14.01,2013-09-27 11:43:00,
2013-09-27 07:46:00,44.5,44.5,30.20,NNE,14,0.0,0.0,100,0.00,,,0.00,31.56,VWS V14.01,2013-09-27 11:46:00,
2013-09-27 07:47:00,44.8,44.8,30.21,NNE,14,0.0,0.0,100,0.00,,,0.00,34.92,VWS V14.01,2013-09-27 11:47:00,
2013-09-27 07:49:00,45.1,44.9,30.20,NNE,14,0.0,0.0,99,0.00,,,0.00,38.89,VWS V14.01,2013-09-27 11:49:00,
2013-09-27 07:51:00,45.9,45.9,30.21,NW,323,0.0,0.0,100,0.00,,,0.00,43.77,VWS V14.01,2013-09-27 11:51:00,
2013-09-27 07:52:00,45.7,45.7,30.21,NW,323,0.0,0.0,100,0.00,,,0.00,44.93,VWS V14.01,2013-09-27 11:52:00,
2013-09-27 07:54:00,46.2,46.2,30.20,NW,323,0.0,0.0,100,0.00,,,0.00,50.79,VWS V14.01,2013-09-27 11:54:00,
2013-09-27 07:55:00,45.9,45.9,30.20,NW,323,0.0,0.0,100,0.00,,,0.00,53.54,VWS V14.01,2013-09-27 11:55:00,
2013-09-27 07:57:00,47.2,47.2,30.21,NW,323,0.0,0.0,100,0.00,,,0.00,58.42,VWS V14.01,2013-09-27 11:57:00,
2013-09-27 07:59:00,47.1,47.1,30.20,NW,323,0.0,0.0,100,0.00,,,0.00,60.87,VWS V14.01,2013-09-27 11:59:00,
2013-09-27 08:00:00,47.9,47.9,30.20,NNE,13,0.0,0.0,100,0.00,,,0.00,63.31,VWS V14.01,2013-09-27 12:00:00,
2013-09-27 08:01:00,47.6,47.6,30.20,NE,40,1.6,1.6,100,0.00,,,0.00,67.46,VWS V14.01,2013-09-27 12:01:00,
2013-09-27 08:02:00,48.0,48.0,30.20,NE,40,0.0,1.6,100,0.00,,,0.00,67.89,VWS V14.01,2013-09-27 12:02:00,
2013-09-27 08:03:00,48.3,48.3,30.21,NE,40,2.0,2.0,100,0.00,,,0.00,70.33,VWS V14.01,2013-09-27 12:03:00,
2013-09-27 08:04:00,48.1,47.0,30.20,NE,40,0.0,1.0,96,0.00,,,0.00,75.27,VWS V14.01,2013-09-27 12:04:00,
2013-09-27 08:06:00,48.2,48.2,30.20,NE,40,0.0,1.0,100,0.00,,,0.00,79.12,VWS V14.01,2013-09-27 12:06:00,
2013-09-27 08:07:00,48.3,47.9,30.20,NE,40,1.1,1.1,98,0.00,,,0.00,80.40,VWS V14.01,2013-09-27 12:07:00,
2013-09-27 08:08:00,48.0,48.0,30.20,NE,40,1.5,2.0,100,0.00,,,0.00,85.04,VWS V14.01,2013-09-27 12:08:00,
2013-09-27 08:09:00,48.2,48.2,30.20,NE,40,0.0,0.0,100,0.00,,,0.00,87.48,VWS V14.01,2013-09-27 12:09:00,
2013-09-27 08:10:00,48.6,48.6,30.20,NE,40,0.0,0.0,100,0.00,,,0.00,87.73,VWS V14.01,2013-09-27 12:10:00,
2013-09-27 08:12:00,48.5,48.5,30.20,NE,40,0.0,0.0,100,0.00,,,0.00,92.31,VWS V14.01,2013-09-27 12:12:00,
2013-09-27 08:13:00,49.2,49.2,30.20,NE,35,0.0,0.0,100,0.00,,,0.00,95.97,VWS V14.01,2013-09-27 12:13:00,
2013-09-27 08:14:00,49.5,49.5,30.20,NE,35,0.0,0.0,100,0.00,,,0.00,98.41,VWS V14.01,2013-09-27 12:14:00,
2013-09-27 08:15:00,49.9,49.5,30.20,NNE,20,0.0,0.0,99,0.00,,,0.00,98.41,VWS V14.01,2013-09-27 12:15:00,
2013-09-27 08:16:00,49.3,49.3,30.20,NNE,20,0.0,0.0,100,0.00,,,0.00,100.43,VWS V14.01,2013-09-27 12:16:00,
2013-09-27 08:20:00,51.5,51.4,30.21,NNE,21,2.2,2.2,100,0.00,,,0.00,110.32,VWS V14.01,2013-09-27 12:20:00,
2013-09-27 08:21:00,51.0,50.9,30.20,NE,35,2.8,2.8,100,0.00,,,0.00,112.15,VWS V14.01,2013-09-27 12:21:00,
2013-09-27 08:22:00,51.8,51.5,30.20,NNE,26,2.2,2.2,99,0.00,,,0.00,115.14,VWS V14.01,2013-09-27 12:22:00,
2013-09-27 08:23:00,52.2,51.8,30.20,NNE,26,2.5,2.5,99,0.00,,,0.00,114.29,VWS V14.01,2013-09-27 12:23:00,
2013-09-27 08:26:00,52.2,51.5,30.20,NNE,28,2.7,2.8,98,0.00,,,0.00,125.27,VWS V14.01,2013-09-27 12:26:00,
2013-09-27 08:27:00,51.9,51.2,30.21,NNE,26,2.3,2.7,97,0.00,,,0.00,126.80,VWS V14.01,2013-09-27 12:27:00,
2013-09-27 08:28:00,52.4,51.6,30.20,NNE,25,2.5,2.5,97,0.00,,,0.00,127.90,VWS V14.01,2013-09-27 12:28:00,
2013-09-27 08:29:00,52.6,51.7,30.20,NNE,29,2.7,3.0,97,0.00,,,0.00,129.49,VWS V14.01,2013-09-27 12:29:00,
2013-09-27 08:31:00,53.0,51.9,30.20,NNE,29,2.5,2.5,96,0.00,,,0.00,135.78,VWS V14.01,2013-09-27 12:31:00,
2013-09-27 08:32:00,53.6,52.2,30.20,NE,39,0.0,2.3,95,0.00,,,0.00,139.01,VWS V14.01,2013-09-27 12:32:00,
2013-09-27 08:33:00,53.6,52.2,30.20,NE,39,0.0,2.3,95,0.00,,,0.00,139.01,VWS V14.01,2013-09-27 12:33:00,
2013-09-27 08:36:00,54.8,52.9,30.20,NE,47,0.0,1.8,93,0.00,,,0.00,146.58,VWS V14.01,2013-09-27 12:36:00,
2013-09-27 08:37:00,54.3,52.0,30.20,NE,45,1.8,1.8,92,0.00,,,0.00,145.91,VWS V14.01,2013-09-27 12:37:00,
2013-09-27 08:38:00,54.5,51.9,30.20,ENE,64,2.8,2.8,91,0.00,,,0.00,153.17,VWS V14.01,2013-09-27 12:38:00,
2013-09-27 08:39:00,54.4,51.7,30.20,ENE,67,3.4,3.4,91,0.00,,,0.00,153.36,VWS V14.01,2013-09-27 12:39:00,
2013-09-27 08:40:00,54.7,52.0,30.19,NE,40,2.7,3.4,91,0.00,,,0.00,156.35,VWS V14.01,2013-09-27 12:40:00,
2013-09-27 08:42:00,55.1,52.4,30.19,ENE,69,2.7,2.7,90,0.00,,,0.00,161.60,VWS V14.01,2013-09-27 12:42:00,
2013-09-27 08:44:00,54.7,51.9,30.19,NE,43,4.2,4.2,90,0.00,,,0.00,165.87,VWS V14.01,2013-09-27 12:44:00,
2013-09-27 08:45:00,55.4,52.6,30.19,ENE,60,3.5,4.2,90,0.00,,,0.00,168.32,VWS V14.01,2013-09-27 12:45:00,
2013-09-27 08:46:00,54.9,52.0,30.19,NE,56,3.9,3.9,90,0.00,,,0.00,169.05,VWS V14.01,2013-09-27 12:46:00,
2013-09-27 08:50:00,55.4,52.2,30.19,NE,48,3.0,3.0,89,0.00,,,0.00,178.08,VWS V14.01,2013-09-27 12:50:00,
2013-09-27 08:51:00,55.1,52.0,30.18,NE,48,2.8,2.8,89,0.00,,,0.00,180.53,VWS V14.01,2013-09-27 12:51:00,
2013-09-27 08:53:00,55.7,52.3,30.19,NE,56,4.2,5.1,88,0.00,,,0.00,185.65,VWS V14.01,2013-09-27 12:53:00,
2013-09-27 08:55:00,56.0,51.2,30.19,NE,51,3.0,3.0,84,0.00,,,0.00,190.29,VWS V14.01,2013-09-27 12:55:00,
2013-09-27 08:56:00,56.2,52.5,30.19,East,80,3.5,3.5,87,0.00,,,0.00,192.25,VWS V14.01,2013-09-27 12:56:00,
2013-09-27 08:57:00,56.2,52.4,30.19,NE,36,3.5,3.5,87,0.00,,,0.00,198.60,VWS V14.01,2013-09-27 12:57:00,
2013-09-27 09:00:00,56.6,52.0,30.18,NE,37,2.8,2.8,85,0.00,,,0.00,205.19,VWS V14.01,2013-09-27 13:00:00,
2013-09-27 09:01:00,56.8,52.1,30.18,NE,44,3.0,3.2,84,0.00,,,0.00,205.56,VWS V14.01,2013-09-27 13:01:00,
2013-09-27 09:02:00,57.0,52.7,30.19,NE,45,1.8,3.2,86,0.00,,,0.00,206.17,VWS V14.01,2013-09-27 13:02:00,
2013-09-27 09:03:00,57.1,52.6,30.18,ENE,68,2.7,3.2,85,0.00,,,0.00,207.39,VWS V14.01,2013-09-27 13:03:00,
2013-09-27 09:06:00,57.3,52.7,30.19,East,79,3.2,5.1,85,0.00,,,0.00,214.71,VWS V14.01,2013-09-27 13:06:00,
2013-09-27 09:07:00,57.3,52.4,30.22,East,89,3.0,5.1,84,0.00,,,0.00,218.13,VWS V14.01,2013-09-27 13:07:00,
2013-09-27 09:08:00,57.1,51.9,30.20,ENE,69,4.7,5.1,83,0.00,,,0.00,219.29,VWS V14.01,2013-09-27 13:08:00,
2013-09-27 09:09:00,57.1,51.9,30.20,ENE,69,4.7,5.1,83,0.00,,,0.00,219.29,VWS V14.01,2013-09-27 13:09:00,
2013-09-27 09:11:00,57.7,53.0,30.20,ENE,73,3.7,5.6,84,0.00,,,0.00,226.92,VWS V14.01,2013-09-27 13:11:00,
2013-09-27 09:12:00,58.0,53.2,30.20,ESE,115,4.4,5.6,84,0.00,,,0.00,229.37,VWS V14.01,2013-09-27 13:12:00,
2013-09-27 09:13:00,57.5,52.7,30.19,ENE,65,3.5,5.6,84,0.00,,,0.00,230.83,VWS V14.01,2013-09-27 13:13:00,
2013-09-27 09:14:00,58.2,53.6,30.19,East,83,3.7,5.6,85,0.00,,,0.00,231.50,VWS V14.01,2013-09-27 13:14:00,
2013-09-27 09:16:00,57.7,52.6,30.18,East,97,5.4,7.8,83,0.00,,,0.00,240.05,VWS V14.01,2013-09-27 13:16:00,
2013-09-27 09:17:00,57.3,52.3,30.18,East,89,5.4,7.8,83,0.00,,,0.00,239.62,VWS V14.01,2013-09-27 13:17:00,
2013-09-27 09:18:00,57.8,53.0,30.17,NE,52,5.7,7.8,84,0.00,,,0.00,242.86,VWS V14.01,2013-09-27 13:18:00,
2013-09-27 09:20:00,58.0,53.1,30.18,NE,51,4.2,7.8,84,0.00,,,0.00,244.51,VWS V14.01,2013-09-27 13:20:00,
2013-09-27 09:23:00,58.0,52.6,30.19,East,86,4.7,7.8,82,0.00,,,0.00,254.03,VWS V14.01,2013-09-27 13:23:00,
2013-09-27 09:24:00,58.0,52.6,30.19,East,86,4.7,7.8,82,0.00,,,0.00,254.03,VWS V14.01,2013-09-27 13:24:00,
2013-09-27 09:25:00,59.1,53.5,30.19,East,93,3.9,7.8,82,0.00,,,0.00,258.67,VWS V14.01,2013-09-27 13:25:00,
2013-09-27 09:26:00,59.1,53.5,30.19,East,93,3.9,7.8,82,0.00,,,0.00,258.67,VWS V14.01,2013-09-27 13:26:00,
2013-09-27 09:29:00,59.0,52.5,30.19,NE,48,3.4,7.8,79,0.00,,,0.00,267.22,VWS V14.01,2013-09-27 13:29:00,
2013-09-27 09:30:00,59.3,52.8,30.19,NE,50,3.9,7.8,79,0.00,,,0.00,268.68,VWS V14.01,2013-09-27 13:30:00,
2013-09-27 09:31:00,59.7,53.3,30.20,NE,53,3.4,7.8,80,0.00,,,0.00,271.73,VWS V14.01,2013-09-27 13:31:00,
2013-09-27 09:35:00,59.1,52.7,30.18,ENE,58,4.4,7.8,79,0.00,,,0.00,280.65,VWS V14.01,2013-09-27 13:35:00,
2013-09-27 09:37:00,60.4,53.5,30.19,East,100,4.4,7.8,78,0.00,,,0.00,288.22,VWS V14.01,2013-09-27 13:37:00,
2013-09-27 09:38:00,60.1,53.3,30.19,East,87,4.0,7.8,78,0.00,,,0.00,289.13,VWS V14.01,2013-09-27 13:38:00,
2013-09-27 09:40:00,60.7,53.8,30.19,ENE,67,3.4,7.8,78,0.00,,,0.00,297.74,VWS V14.01,2013-09-27 13:40:00,
2013-09-27 09:42:00,60.7,52.5,30.19,East,91,4.4,7.8,74,0.00,,,0.00,300.92,VWS V14.01,2013-09-27 13:42:00,
2013-09-27 09:43:00,61.5,54.4,30.19,East,88,2.7,7.8,78,0.00,,,0.00,303.85,VWS V14.01,2013-09-27 13:43:00,
2013-09-27 09:44:00,61.7,54.0,30.19,East,89,3.2,7.8,76,0.00,,,0.00,304.82,VWS V14.01,2013-09-27 13:44:00,
2013-09-27 09:45:00,60.6,52.6,30.19,ENE,74,5.4,7.8,75,0.00,,,0.00,307.51,VWS V14.01,2013-09-27 13:45:00,
2013-09-27 09:48:00,61.0,52.2,30.18,NE,43,5.1,7.8,73,0.00,,,0.00,317.28,VWS V14.01,2013-09-27 13:48:00,
2013-09-27 09:49:00,61.0,52.4,30.19,NE,51,4.2,7.8,73,0.00,,,0.00,319.72,VWS V14.01,2013-09-27 13:49:00,
2013-09-27 09:50:00,61.2,52.6,30.18,ENE,65,4.4,7.8,73,0.00,,,0.00,321.67,VWS V14.01,2013-09-27 13:50:00,
2013-09-27 09:51:00,61.7,52.6,30.18,East,79,5.1,7.8,72,0.00,,,0.00,324.36,VWS V14.01,2013-09-27 13:51:00,
2013-09-27 09:53:00,61.7,52.7,30.18,NE,45,4.7,7.8,72,0.00,,,0.00,329.73,VWS V14.01,2013-09-27 13:53:00,
2013-09-27 09:54:00,62.0,52.5,30.18,East,80,4.2,7.8,71,0.00,,,0.00,331.93,VWS V14.01,2013-09-27 13:54:00,
2013-09-27 09:57:00,61.8,52.6,30.21,NE,48,4.9,7.8,72,0.00,,,0.00,339.26,VWS V14.01,2013-09-27 13:57:00,
2013-09-27 09:58:00,62.2,52.6,30.19,ESE,116,6.6,7.8,71,0.00,,,0.00,339.50,VWS V14.01,2013-09-27 13:58:00,
2013-09-27 09:59:00,61.6,51.3,30.17,East,82,5.6,7.8,69,0.00,,,0.00,347.19,VWS V14.01,2013-09-27 13:59:00,
2013-09-27 10:00:00,61.6,51.3,30.17,East,82,5.6,7.8,69,0.00,,,0.00,347.19,VWS V14.01,2013-09-27 14:00:00,
2013-09-27 10:02:00,62.1,51.2,30.18,East,79,6.1,7.8,67,0.00,,,0.00,353.60,VWS V14.01,2013-09-27 14:02:00,
2013-09-27 10:03:00,63.0,52.5,30.18,NE,53,4.0,6.1,69,0.00,,,0.00,356.35,VWS V14.01,2013-09-27 14:03:00,
2013-09-27 10:04:00,62.8,52.3,30.19,NE,53,4.9,5.6,69,0.00,,,0.00,358.55,VWS V14.01,2013-09-27 14:04:00,
2013-09-27 10:05:00,64.1,53.7,30.18,NE,34,3.2,4.9,69,0.00,,,0.00,361.60,VWS V14.01,2013-09-27 14:05:00,
2013-09-27 10:06:00,63.9,53.0,30.18,ENE,60,3.2,3.2,68,0.00,,,0.00,363.49,VWS V14.01,2013-09-27 14:06:00,
2013-09-27 10:08:00,64.3,52.8,30.18,ENE,57,4.4,4.7,66,0.00,,,0.00,366.97,VWS V14.01,2013-09-27 14:08:00,
2013-09-27 10:09:00,63.3,51.3,30.20,NNE,25,5.9,5.9,65,0.00,,,0.00,368.56,VWS V14.01,2013-09-27 14:09:00,
2013-09-27 10:10:00,64.4,52.9,30.19,ESE,103,4.0,5.4,66,0.00,,,0.00,372.89,VWS V14.01,2013-09-27 14:10:00,
2013-09-27 10:12:00,65.0,52.5,30.19,NNE,15,3.7,4.0,64,0.00,,,0.00,376.37,VWS V14.01,2013-09-27 14:12:00,
2013-09-27 10:14:00,63.3,50.7,30.19,ESE,118,6.8,7.8,63,0.00,,,0.00,383.21,VWS V14.01,2013-09-27 14:14:00,
2013-09-27 10:15:00,63.3,50.5,30.19,East,99,6.6,7.8,63,0.00,,,0.00,384.43,VWS V14.01,2013-09-27 14:15:00,
2013-09-27 10:17:00,62.8,49.6,30.17,East,88,6.8,6.8,62,0.00,,,0.00,388.10,VWS V14.01,2013-09-27 14:17:00,
2013-09-27 10:18:00,64.5,52.2,30.18,ENE,64,4.4,6.8,64,0.00,,,0.00,391.45,VWS V14.01,2013-09-27 14:18:00,
2013-09-27 10:19:00,63.7,50.5,30.18,ENE,61,5.6,5.6,62,0.00,,,0.00,392.74,VWS V14.01,2013-09-27 14:19:00,
2013-09-27 10:21:00,65.2,51.8,30.18,ENE,63,5.1,6.1,62,0.00,,,0.00,398.41,VWS V14.01,2013-09-27 14:21:00,
2013-09-27 10:22:00,64.1,50.3,30.18,NE,46,5.2,5.2,61,0.00,,,0.00,400.31,VWS V14.01,2013-09-27 14:22:00,
2013-09-27 10:23:00,64.3,50.1,30.18,ENE,70,5.4,5.4,60,0.00,,,0.00,400.31,VWS V14.01,2013-09-27 14:23:00,
2013-09-27 10:25:00,63.4,48.6,30.18,ENE,60,3.2,7.8,58,0.00,,,0.00,408.36,VWS V14.01,2013-09-27 14:25:00,
2013-09-27 10:26:00,64.6,49.9,30.18,ENE,66,5.6,5.6,59,0.00,,,0.00,404.88,VWS V14.01,2013-09-27 14:26:00,
2013-09-27 10:27:00,65.6,51.2,30.19,ENE,77,3.7,3.7,60,0.00,,,0.00,410.81,VWS V14.01,2013-09-27 14:27:00,
2013-09-27 10:28:00,65.2,49.7,30.18,East,99,6.9,6.9,57,0.00,,,0.00,412.52,VWS V14.01,2013-09-27 14:28:00,
2013-09-27 10:31:00,65.4,49.6,30.21,NE,45,4.5,5.7,57,0.00,,,0.00,421.80,VWS V14.01,2013-09-27 14:31:00,
2013-09-27 10:32:00,65.9,49.4,30.18,East,95,4.9,4.9,55,0.00,,,0.00,425.70,VWS V14.01,2013-09-27 14:32:00,
2013-09-27 10:33:00,67.6,51.4,30.18,East,99,2.7,4.9,56,0.00,,,0.00,429.61,VWS V14.01,2013-09-27 14:33:00,
2013-09-27 10:36:00,67.8,49.9,30.18,SE,144,3.2,3.2,53,0.00,,,0.00,432.36,VWS V14.01,2013-09-27 14:36:00,
2013-09-27 10:37:00,67.8,49.9,30.18,SE,144,3.2,3.2,53,0.00,,,0.00,432.36,VWS V14.01,2013-09-27 14:37:00,
2013-09-27 10:39:00,65.9,47.8,30.18,ESE,112,8.8,8.8,52,0.00,,,0.00,439.68,VWS V14.01,2013-09-27 14:39:00,
2013-09-27 10:42:00,66.4,47.6,30.19,ESE,112,5.4,5.4,51,0.00,,,0.00,446.52,VWS V14.01,2013-09-27 14:42:00,
2013-09-27 10:43:00,66.3,47.2,30.18,East,85,7.5,7.5,50,0.00,,,0.00,449.63,VWS V14.01,2013-09-27 14:43:00,
2013-09-27 10:44:00,66.1,46.5,30.18,East,79,9.5,9.5,49,0.00,,,0.00,453.54,VWS V14.01,2013-09-27 14:44:00,
2013-09-27 10:46:00,67.3,47.7,30.19,ESE,115,5.6,6.4,49,0.00,,,0.00,458.67,VWS V14.01,2013-09-27 14:46:00,
2013-09-27 10:47:00,67.6,47.3,30.18,East,100,6.4,6.4,48,0.00,,,0.00,454.03,VWS V14.01,2013-09-27 14:47:00,
2013-09-27 10:48:00,66.3,45.0,30.18,East,96,8.3,8.3,46,0.00,,,0.00,395.18,VWS V14.01,2013-09-27 14:48:00,
2013-09-27 10:50:00,68.6,48.2,30.19,East,90,4.4,6.8,48,0.00,,,0.00,459.40,VWS V14.01,2013-09-27 14:50:00,
2013-09-27 10:52:00,66.9,45.6,30.19,SE,135,4.4,4.5,46,0.00,,,0.00,466.54,VWS V14.01,2013-09-27 14:52:00,
2013-09-27 10:53:00,66.9,45.6,30.19,SE,135,4.4,4.5,46,0.00,,,0.00,466.54,VWS V14.01,2013-09-27 14:53:00,
2013-09-27 10:54:00,67.2,46.2,30.20,SE,135,5.4,5.4,47,0.00,,,0.00,471.49,VWS V14.01,2013-09-27 14:54:00,
2013-09-27 10:57:00,68.2,47.2,30.21,ENE,66,6.4,7.5,47,0.00,,,0.00,473.81,VWS V14.01,2013-09-27 14:57:00,
2013-09-27 10:58:00,67.7,46.4,30.20,SE,133,6.4,6.4,46,0.00,,,0.00,480.89,VWS V14.01,2013-09-27 14:58:00,
2013-09-27 10:59:00,66.7,45.0,30.19,SE,134,5.1,6.4,46,0.00,,,0.00,239.13,VWS V14.01,2013-09-27 14:59:00,
2013-09-27 11:02:00,68.1,41.9,30.19,East,92,4.4,5.7,38,0.00,,,0.00,488.22,VWS V14.01,2013-09-27 15:02:00,
2013-09-27 11:04:00,67.6,45.2,30.19,NE,44,5.9,6.6,44,0.00,,,0.00,490.72,VWS V14.01,2013-09-27 15:04:00,
2013-09-27 11:08:00,68.2,43.6,30.19,East,81,5.6,5.6,41,0.00,,,0.00,502.87,VWS V14.01,2013-09-27 15:08:00,
2013-09-27 11:09:00,67.6,44.0,30.19,East,80,8.5,8.5,42,0.00,,,0.00,501.95,VWS V14.01,2013-09-27 15:09:00,
2013-09-27 11:13:00,69.7,42.6,30.18,SE,129,4.7,4.7,37,0.00,,,0.00,506.23,VWS V14.01,2013-09-27 15:13:00,
2013-09-27 11:14:00,68.6,44.2,30.19,NE,50,6.9,6.9,41,0.00,,,0.00,508.24,VWS V14.01,2013-09-27 15:14:00,
2013-09-27 11:15:00,67.9,43.2,30.19,ENE,78,6.3,6.9,41,0.00,,,0.00,515.08,VWS V14.01,2013-09-27 15:15:00,
2013-09-27 11:16:00,68.5,43.8,30.19,ESE,108,7.3,7.3,41,0.00,,,0.00,511.54,VWS V14.01,2013-09-27 15:16:00,
2013-09-27 11:19:00,67.8,43.0,30.18,SSE,148,6.4,6.4,41,0.00,,,0.00,520.45,VWS V14.01,2013-09-27 15:19:00,
2013-09-27 11:20:00,70.7,45.6,30.18,SE,130,4.0,6.3,41,0.00,,,0.00,517.77,VWS V14.01,2013-09-27 15:20:00,
2013-09-27 11:22:00,69.7,43.2,30.18,SE,127,6.9,6.9,38,0.00,,,0.00,524.54,VWS V14.01,2013-09-27 15:22:00,
2013-09-27 11:23:00,67.0,40.2,30.19,ENE,69,7.5,7.5,37,0.00,,,0.00,526.98,VWS V14.01,2013-09-27 15:23:00,
2013-09-27 11:25:00,68.9,42.8,30.18,SSE,161,8.7,8.7,39,0.00,,,0.00,529.73,VWS V14.01,2013-09-27 15:25:00,
2013-09-27 11:26:00,70.1,44.2,30.19,ESE,119,5.1,8.3,39,0.00,,,0.00,535.59,VWS V14.01,2013-09-27 15:26:00,
2013-09-27 11:28:00,68.1,42.3,30.18,ESE,108,7.8,7.8,39,0.00,,,0.00,534.07,VWS V14.01,2013-09-27 15:28:00,
2013-09-27 11:30:00,67.7,41.8,30.18,ENE,72,6.6,8.1,39,0.00,,,0.00,536.33,VWS V14.01,2013-09-27 15:30:00,
2013-09-27 11:31:00,68.7,42.7,30.18,NE,45,8.7,8.7,39,0.00,,,0.00,539.50,VWS V14.01,2013-09-27 15:31:00,
2013-09-27 11:33:00,67.6,41.6,30.19,ENE,69,7.3,7.8,39,0.00,,,0.00,541.70,VWS V14.01,2013-09-27 15:33:00,
2013-09-27 11:35:00,68.6,42.3,30.18,SE,142,6.8,6.8,38,0.00,,,0.00,545.36,VWS V14.01,2013-09-27 15:35:00,
2013-09-27 11:37:00,67.5,41.4,30.18,ESE,107,7.5,7.5,39,0.00,,,0.00,546.83,VWS V14.01,2013-09-27 15:37:00,
2013-09-27 11:38:00,69.0,43.5,30.18,East,82,3.9,3.9,40,0.00,,,0.00,547.56,VWS V14.01,2013-09-27 15:38:00,
2013-09-27 11:41:00,70.6,45.8,30.18,SE,135,6.4,6.4,41,0.00,,,0.00,545.54,VWS V14.01,2013-09-27 15:41:00,
2013-09-27 11:43:00,69.1,41.7,30.18,East,94,6.9,6.9,37,0.00,,,0.00,555.86,VWS V14.01,2013-09-27 15:43:00,
2013-09-27 11:44:00,69.4,42.2,30.18,SE,136,9.5,9.5,37,0.00,,,0.00,559.04,VWS V14.01,2013-09-27 15:44:00,
2013-09-27 11:46:00,69.9,42.7,30.18,ESE,104,5.7,9.5,37,0.00,,,0.00,563.68,VWS V14.01,2013-09-27 15:46:00,
2013-09-27 11:48:00,70.2,43.0,30.18,NE,56,6.1,8.1,37,0.00,,,0.00,559.04,VWS V14.01,2013-09-27 15:48:00,
2013-09-27 11:50:00,68.2,40.0,30.19,SE,139,7.5,7.8,36,0.00,,,0.00,570.51,VWS V14.01,2013-09-27 15:50:00,
2013-09-27 11:51:00,70.5,42.8,30.18,SE,137,6.9,7.5,37,0.00,,,0.00,569.05,VWS V14.01,2013-09-27 15:51:00,
2013-09-27 11:52:00,69.7,41.6,30.18,SE,127,8.0,8.0,36,0.00,,,0.00,571.43,VWS V14.01,2013-09-27 15:52:00,
2013-09-27 11:53:00,68.7,41.1,30.18,East,99,8.5,8.8,37,0.00,,,0.00,573.69,VWS V14.01,2013-09-27 15:53:00,
2013-09-27 11:57:00,69.9,42.3,30.18,East,82,4.2,7.3,37,0.00,,,0.00,569.54,VWS V14.01,2013-09-27 15:57:00,
2013-09-27 11:58:00,71.6,43.7,30.18,ENE,62,5.2,5.2,37,0.00,,,0.00,580.77,VWS V14.01,2013-09-27 15:58:00,
2013-09-27 11:59:00,70.2,41.6,30.18,East,98,5.9,5.9,35,0.00,,,0.00,580.28,VWS V14.01,2013-09-27 15:59:00,
2013-09-27 12:02:00,69.6,42.2,30.18,NE,41,6.3,8.3,37,0.00,,,0.00,581.01,VWS V14.01,2013-09-27 16:02:00,
2013-09-27 12:03:00,68.8,40.8,30.18,East,101,9.0,9.0,36,0.00,,,0.00,583.88,VWS V14.01,2013-09-27 16:03:00,
2013-09-27 12:04:00,71.6,43.9,30.18,NE,37,6.3,8.3,37,0.00,,,0.00,582.48,VWS V14.01,2013-09-27 16:04:00,
2013-09-27 12:05:00,71.2,42.8,30.18,ENE,57,6.8,6.8,36,0.00,,,0.00,581.26,VWS V14.01,2013-09-27 16:05:00,
2013-09-27 12:07:00,69.8,41.9,30.17,ENE,63,5.1,8.1,36,0.00,,,0.00,592.49,VWS V14.01,2013-09-27 16:07:00,
2013-09-27 12:09:00,68.4,40.0,30.17,East,79,7.5,7.5,35,0.00,,,0.00,590.78,VWS V14.01,2013-09-27 16:09:00,
2013-09-27 12:10:00,72.3,43.5,30.17,ESE,122,4.2,4.2,36,0.00,,,0.00,595.42,VWS V14.01,2013-09-27 16:10:00,
2013-09-27 12:11:00,72.4,43.2,30.17,ESE,122,5.1,5.1,35,0.00,,,0.00,594.69,VWS V14.01,2013-09-27 16:11:00,
2013-09-27 12:12:00,71.2,40.7,30.17,ESE,105,5.7,6.9,33,0.00,,,0.00,595.67,VWS V14.01,2013-09-27 16:12:00,
2013-09-27 12:16:00,69.8,39.6,30.18,South,180,6.4,7.3,33,0.00,,,0.00,600.79,VWS V14.01,2013-09-27 16:16:00,
2013-09-27 12:17:00,70.8,39.7,30.18,East,84,9.2,9.2,32,0.00,,,0.00,559.34,VWS V14.01,2013-09-27 16:17:00,
2013-09-27 12:18:00,69.1,39.0,30.17,ESE,116,6.6,8.3,33,0.00,,,0.00,51.10,VWS V14.01,2013-09-27 16:18:00,
2013-09-27 12:20:00,71.4,41.6,30.17,East,97,4.2,4.2,34,0.00,,,0.00,35.96,VWS V14.01,2013-09-27 16:20:00,
2013-09-27 12:21:00,71.9,41.1,30.17,SE,125,5.7,5.7,33,0.00,,,0.00,36.20,VWS V14.01,2013-09-27 16:21:00,
2013-09-27 12:22:00,70.1,38.4,30.17,ESE,122,9.7,10.5,31,0.00,,,0.00,36.20,VWS V14.01,2013-09-27 16:22:00,
2013-09-27 12:24:00,70.0,39.8,30.17,East,93,8.5,8.5,33,0.00,,,0.00,36.45,VWS V14.01,2013-09-27 16:24:00,
2013-09-27 12:28:00,69.9,40.4,30.17,SSE,164,7.5,8.1,34,0.00,,,0.00,36.45,VWS V14.01,2013-09-27 16:28:00,
2013-09-27 12:29:00,69.8,40.3,30.17,East,80,4.0,4.0,34,0.00,,,0.00,33.33,VWS V14.01,2013-09-27 16:29:00,
2013-09-27 12:33:00,72.2,42.3,30.17,ESE,122,4.2,6.4,34,0.00,,,0.00,615.20,VWS V14.01,2013-09-27 16:33:00,
2013-09-27 12:34:00,73.3,42.2,30.17,NE,49,5.1,5.1,33,0.00,,,0.00,616.67,VWS V14.01,2013-09-27 16:34:00,
2013-09-27 12:36:00,70.3,40.0,30.17,ENE,70,8.0,8.5,33,0.00,,,0.00,620.02,VWS V14.01,2013-09-27 16:36:00,
2013-09-27 12:39:00,70.8,40.3,30.16,East,85,4.5,4.5,33,0.00,,,0.00,624.73,VWS V14.01,2013-09-27 16:39:00,
2013-09-27 12:40:00,72.3,41.8,30.16,SSE,154,6.6,6.6,33,0.00,,,0.00,625.46,VWS V14.01,2013-09-27 16:40:00,
2013-09-27 12:42:00,73.3,43.4,30.17,SSW,200,4.2,6.6,34,0.00,,,0.00,622.53,VWS V14.01,2013-09-27 16:42:00,
2013-09-27 12:45:00,72.0,39.9,30.17,East,93,5.4,7.5,31,0.00,,,0.00,522.41,VWS V14.01,2013-09-27 16:45:00,
2013-09-27 12:46:00,70.8,39.0,30.17,SE,145,3.7,3.7,31,0.00,,,0.00,625.52,VWS V14.01,2013-09-27 16:46:00,
2013-09-27 12:50:00,70.9,37.2,30.16,ESE,117,9.2,9.2,29,0.00,,,0.00,628.14,VWS V14.01,2013-09-27 16:50:00,
2013-09-27 12:51:00,72.2,38.8,30.17,SE,134,5.4,9.5,30,0.00,,,0.00,629.85,VWS V14.01,2013-09-27 16:51:00,
2013-09-27 12:52:00,72.6,38.8,30.16,ENE,65,5.1,5.4,29,0.00,,,0.00,624.66,VWS V14.01,2013-09-27 16:52:00,
2013-09-27 12:55:00,70.6,37.5,30.17,East,80,9.2,9.2,30,0.00,,,0.00,633.94,VWS V14.01,2013-09-27 16:55:00,
2013-09-27 12:56:00,71.2,38.5,30.16,East,80,9.3,11.1,30,0.00,,,0.00,635.23,VWS V14.01,2013-09-27 16:56:00,
2013-09-27 12:57:00,71.6,39.6,30.16,NE,35,10.4,10.4,31,0.00,,,0.00,631.99,VWS V14.01,2013-09-27 16:57:00,
2013-09-27 13:00:00,71.3,38.1,30.16,NNE,30,3.9,4.7,30,0.00,,,0.00,636.51,VWS V14.01,2013-09-27 17:00:00,
2013-09-27 13:01:00,73.7,39.5,30.17,SSW,195,5.4,5.4,29,0.00,,,0.00,603.85,VWS V14.01,2013-09-27 17:01:00,
2013-09-27 13:02:00,73.7,39.5,30.17,SSW,195,5.4,5.4,29,0.00,,,0.00,603.85,VWS V14.01,2013-09-27 17:02:00,
2013-09-27 13:03:00,74.9,39.2,30.16,SSE,161,5.2,5.2,28,0.00,,,0.00,575.58,VWS V14.01,2013-09-27 17:03:00,
2013-09-27 13:06:00,71.2,34.7,30.16,SE,131,8.8,8.8,26,0.00,,,0.00,637.42,VWS V14.01,2013-09-27 17:06:00,
2013-09-27 13:07:00,73.7,37.5,30.17,East,88,7.1,8.8,27,0.00,,,0.00,635.35,VWS V14.01,2013-09-27 17:07:00,
2013-09-27 13:08:00,73.4,37.5,30.17,SE,145,7.6,8.5,27,0.00,,,0.00,632.72,VWS V14.01,2013-09-27 17:08:00,
2013-09-27 13:10:00,73.6,37.9,30.16,ENE,57,5.2,7.1,27,0.00,,,0.00,636.94,VWS V14.01,2013-09-27 17:10:00,
2013-09-27 13:12:00,72.5,37.4,30.16,SE,133,4.5,4.5,28,0.00,,,0.00,637.18,VWS V14.01,2013-09-27 17:12:00,
2013-09-27 13:13:00,72.6,37.6,30.16,SSE,151,8.5,8.5,28,0.00,,,0.00,638.28,VWS V14.01,2013-09-27 17:13:00,
2013-09-27 13:15:00,73.4,37.8,30.16,East,87,4.5,7.5,27,0.00,,,0.00,637.24,VWS V14.01,2013-09-27 17:15:00,
2013-09-27 13:17:00,73.8,37.2,30.17,SE,131,7.5,8.1,26,0.00,,,0.00,642.06,VWS V14.01,2013-09-27 17:17:00,
2013-09-27 13:18:00,74.3,38.4,30.16,ESE,113,6.3,7.5,27,0.00,,,0.00,639.62,VWS V14.01,2013-09-27 17:18:00,
2013-09-27 13:21:00,72.8,36.8,30.17,ENE,70,5.1,5.1,27,0.00,,,0.00,640.05,VWS V14.01,2013-09-27 17:21:00,
2013-09-27 13:22:00,74.1,37.8,30.16,ENE,74,6.9,6.9,27,0.00,,,0.00,639.38,VWS V14.01,2013-09-27 17:22:00,
2013-09-27 13:23:00,73.5,37.3,30.16,South,169,6.1,6.9,27,0.00,,,0.00,638.65,VWS V14.01,2013-09-27 17:23:00,
2013-09-27 13:24:00,73.5,37.3,30.16,South,169,6.1,6.9,27,0.00,,,0.00,638.65,VWS V14.01,2013-09-27 17:24:00,
2013-09-27 13:27:00,73.4,36.6,30.16,SSE,165,9.0,9.0,26,0.00,,,0.00,639.62,VWS V14.01,2013-09-27 17:27:00,
2013-09-27 13:28:00,72.1,34.9,30.16,ENE,63,8.5,8.5,26,0.00,,,0.00,637.49,VWS V14.01,2013-09-27 17:28:00,
2013-09-27 13:29:00,72.2,35.8,30.16,East,90,8.3,8.5,26,0.00,,,0.00,568.56,VWS V14.01,2013-09-27 17:29:00,
2013-09-27 13:31:00,74.3,35.9,30.16,SE,139,4.7,6.1,25,0.00,,,0.00,642.06,VWS V14.01,2013-09-27 17:31:00,
2013-09-27 13:32:00,74.1,35.9,30.16,SSE,160,6.4,6.4,25,0.00,,,0.00,640.90,VWS V14.01,2013-09-27 17:32:00,
2013-09-27 13:33:00,73.1,35.2,30.16,SE,126,5.2,7.5,25,0.00,,,0.00,644.51,VWS V14.01,2013-09-27 17:33:00,
2013-09-27 13:35:00,73.4,36.9,30.16,ENE,77,7.1,7.1,26,0.00,,,0.00,642.06,VWS V14.01,2013-09-27 17:35:00,
2013-09-27 13:37:00,72.0,35.7,30.16,ENE,73,5.4,5.4,26,0.00,,,0.00,639.32,VWS V14.01,2013-09-27 17:37:00,
2013-09-27 13:38:00,74.3,37.8,30.16,ESE,113,5.2,5.2,27,0.00,,,0.00,643.77,VWS V14.01,2013-09-27 17:38:00,
2013-09-27 13:39:00,74.8,37.8,30.16,SE,139,6.4,6.4,26,0.00,,,0.00,642.06,VWS V14.01,2013-09-27 17:39:00,
2013-09-27 13:41:00,72.4,34.1,30.16,ESE,112,6.4,6.4,24,0.00,,,0.00,646.70,VWS V14.01,2013-09-27 17:41:00,
2013-09-27 13:42:00,72.8,29.0,30.15,ESE,105,5.6,5.6,20,0.00,,,0.00,641.76,VWS V14.01,2013-09-27 17:42:00,
2013-09-27 13:43:00,74.8,35.7,30.15,SE,145,9.9,9.9,24,0.00,,,0.00,634.19,VWS V14.01,2013-09-27 17:43:00,
2013-09-27 13:44:00,74.4,34.0,30.15,ESE,112,8.0,9.9,23,0.00,,,0.00,644.02,VWS V14.01,2013-09-27 17:44:00,
2013-09-27 13:47:00,75.9,36.2,30.15,South,176,6.9,9.2,24,0.00,,,0.00,639.62,VWS V14.01,2013-09-27 17:47:00,
2013-09-27 13:48:00,73.9,33.7,30.15,East,101,6.3,6.9,23,0.00,,,0.00,607.57,VWS V14.01,2013-09-27 17:48:00,
2013-09-27 13:50:00,73.7,33.5,30.15,SSE,149,8.0,8.0,23,0.00,,,0.00,643.16,VWS V14.01,2013-09-27 17:50:00,
2013-09-27 13:53:00,74.8,36.6,30.15,SE,137,5.4,5.4,25,0.00,,,0.00,640.84,VWS V14.01,2013-09-27 17:53:00,
2013-09-27 13:55:00,76.1,37.1,30.15,SSW,196,5.1,8.3,24,0.00,,,0.00,640.23,VWS V14.01,2013-09-27 17:55:00,
2013-09-27 13:56:00,75.5,36.1,30.15,SSE,163,8.7,8.7,24,0.00,,,0.00,643.22,VWS V14.01,2013-09-27 17:56:00,
2013-09-27 13:58:00,74.8,34.5,30.15,East,79,5.7,7.3,23,0.00,,,0.00,627.41,VWS V14.01,2013-09-27 17:58:00,
2013-09-27 14:01:00,77.1,36.0,30.15,SE,145,4.4,5.4,23,0.00,,,0.00,622.53,VWS V14.01,2013-09-27 18:01:00,
2013-09-27 14:02:00,76.9,35.7,30.15,SSE,159,4.5,11.6,22,0.00,,,0.00,639.62,VWS V14.01,2013-09-27 18:02:00,
2013-09-27 14:04:00,75.0,34.3,30.15,SE,139,8.8,11.6,23,0.00,,,0.00,637.12,VWS V14.01,2013-09-27 18:04:00,
2013-09-27 14:06:00,76.0,35.5,30.14,ENE,60,8.1,11.6,23,0.00,,,0.00,617.64,VWS V14.01,2013-09-27 18:06:00,
2013-09-27 14:07:00,76.3,36.0,30.15,SE,134,5.7,11.6,23,0.00,,,0.00,617.64,VWS V14.01,2013-09-27 18:07:00,
2013-09-27 14:09:00,74.3,34.6,30.14,SE,142,7.6,11.6,23,0.00,,,0.00,611.36,VWS V14.01,2013-09-27 18:09:00,
2013-09-27 14:11:00,74.1,33.6,30.15,ESE,121,6.3,11.6,23,0.00,,,0.00,632.91,VWS V14.01,2013-09-27 18:11:00,
2013-09-27 14:14:00,75.7,36.0,30.15,SE,144,9.2,11.6,24,0.00,,,0.00,624.97,VWS V14.01,2013-09-27 18:14:00,
2013-09-27 14:15:00,76.4,36.7,30.14,NE,56,8.0,11.6,24,0.00,,,0.00,628.33,VWS V14.01,2013-09-27 18:15:00,
2013-09-27 14:16:00,76.2,35.8,30.15,ESE,104,8.7,11.6,23,0.00,,,0.00,627.41,VWS V14.01,2013-09-27 18:16:00,
2013-09-27 14:17:00,76.8,37.2,30.14,East,94,5.9,11.6,24,0.00,,,0.00,610.56,VWS V14.01,2013-09-27 18:17:00,
2013-09-27 14:21:00,75.8,35.7,30.14,ESE,109,6.6,11.6,23,0.00,,,0.00,629.85,VWS V14.01,2013-09-27 18:21:00,
2013-09-27 14:23:00,74.6,34.6,30.15,ESE,103,8.7,11.6,23,0.00,,,0.00,627.96,VWS V14.01,2013-09-27 18:23:00,
2013-09-27 14:24:00,76.3,37.2,30.14,East,87,3.0,11.6,24,0.00,,,0.00,626.68,VWS V14.01,2013-09-27 18:24:00,
2013-09-27 14:26:00,75.1,34.8,30.14,ENE,78,5.9,11.6,23,0.00,,,0.00,628.14,VWS V14.01,2013-09-27 18:26:00,
2013-09-27 14:28:00,73.7,33.8,30.14,ENE,57,3.0,11.6,23,0.00,,,0.00,612.76,VWS V14.01,2013-09-27 18:28:00,
2013-09-27 14:30:00,75.3,34.8,30.14,ESE,119,6.3,11.6,23,0.00,,,0.00,624.97,VWS V14.01,2013-09-27 18:30:00,
2013-09-27 14:31:00,75.3,35.1,30.14,SSE,156,4.4,11.6,23,0.00,,,0.00,615.20,VWS V14.01,2013-09-27 18:31:00,
2013-09-27 14:34:00,76.1,35.6,30.15,SSE,150,5.6,11.6,23,0.00,,,0.00,619.60,VWS V14.01,2013-09-27 18:34:00,
2013-09-27 14:35:00,75.8,34.6,30.14,SW,216,6.3,11.6,22,0.00,,,0.00,620.39,VWS V14.01,2013-09-27 18:35:00,
2013-09-27 14:36:00,76.6,35.3,30.14,ESE,107,3.7,11.6,22,0.00,,,0.00,607.88,VWS V14.01,2013-09-27 18:36:00,
2013-09-27 14:39:00,75.4,35.2,30.13,East,89,7.6,11.6,23,0.00,,,0.00,568.07,VWS V14.01,2013-09-27 18:39:00,
2013-09-27 14:41:00,74.5,33.7,30.13,NE,48,6.8,11.6,22,0.00,,,0.00,605.43,VWS V14.01,2013-09-27 18:41:00,
2013-09-27 14:42:00,75.4,35.2,30.13,ENE,77,7.3,11.6,23,0.00,,,0.00,611.23,VWS V14.01,2013-09-27 18:42:00,
2013-09-27 14:44:00,77.0,36.9,30.13,ENE,59,4.4,11.6,23,0.00,,,0.00,605.13,VWS V14.01,2013-09-27 18:44:00,
2013-09-27 14:45:00,76.5,36.1,30.13,East,94,3.9,11.6,23,0.00,,,0.00,601.77,VWS V14.01,2013-09-27 18:45:00,
2013-09-27 14:47:00,74.9,33.6,30.13,East,80,7.3,11.6,22,0.00,,,0.00,602.50,VWS V14.01,2013-09-27 18:47:00,
2013-09-27 14:49:00,75.7,36.2,30.13,East,84,8.5,11.6,24,0.00,,,0.00,601.65,VWS V14.01,2013-09-27 18:49:00,
2013-09-27 14:50:00,74.4,35.0,30.13,South,173,6.1,11.6,24,0.00,,,0.00,551.71,VWS V14.01,2013-09-27 18:50:00,
2013-09-27 14:52:00,75.9,36.9,30.13,SE,132,2.7,11.6,24,0.00,,,0.00,593.22,VWS V14.01,2013-09-27 18:52:00,
2013-09-27 14:54:00,74.3,34.2,30.13,East,95,7.5,11.6,23,0.00,,,0.00,593.83,VWS V14.01,2013-09-27 18:54:00,
2013-09-27 14:55:00,75.2,35.7,30.13,SE,125,5.7,11.6,24,0.00,,,0.00,591.51,VWS V14.01,2013-09-27 18:55:00,
2013-09-27 14:57:00,75.8,36.5,30.12,NE,55,7.3,11.6,24,0.00,,,0.00,581.01,VWS V14.01,2013-09-27 18:57:00,
2013-09-27 15:00:00,74.9,35.1,30.12,East,94,7.1,11.6,23,0.00,,,0.00,587.12,VWS V14.01,2013-09-27 19:00:00,
2013-09-27 15:01:00,74.9,35.1,30.12,East,94,7.1,11.6,23,0.00,,,0.00,587.12,VWS V14.01,2013-09-27 19:01:00,
2013-09-27 15:04:00,76.7,36.4,30.13,East,83,6.3,6.3,23,0.00,,,0.00,576.13,VWS V14.01,2013-09-27 19:04:00,
2013-09-27 15:06:00,75.1,35.0,30.13,East,100,7.8,8.5,23,0.00,,,0.00,581.62,VWS V14.01,2013-09-27 19:06:00,
2013-09-27 15:07:00,75.2,34.9,30.13,ESE,103,5.2,5.7,23,0.00,,,0.00,578.57,VWS V14.01,2013-09-27 19:07:00,
2013-09-27 15:10:00,75.0,35.4,30.13,ENE,68,5.9,7.1,24,0.00,,,0.00,537.55,VWS V14.01,2013-09-27 19:10:00,
2013-09-27 15:11:00,75.9,36.5,30.13,East,86,4.9,5.9,24,0.00,,,0.00,575.89,VWS V14.01,2013-09-27 19:11:00,
2013-09-27 15:13:00,75.5,35.2,30.13,South,169,7.6,7.6,23,0.00,,,0.00,568.80,VWS V14.01,2013-09-27 19:13:00,
2013-09-27 15:15:00,75.0,35.0,30.12,NE,45,6.3,6.3,23,0.00,,,0.00,556.78,VWS V14.01,2013-09-27 19:15:00,
2013-09-27 15:16:00,77.6,37.0,30.12,East,96,3.0,3.9,23,0.00,,,0.00,563.68,VWS V14.01,2013-09-27 19:16:00,
2013-09-27 15:17:00,76.9,36.0,30.12,ENE,71,2.7,3.0,23,0.00,,,0.00,563.74,VWS V14.01,2013-09-27 19:17:00,
2013-09-27 15:20:00,75.8,33.8,30.12,ESE,121,4.2,5.7,22,0.00,,,0.00,560.13,VWS V14.01,2013-09-27 19:20:00,
2013-09-27 15:21:00,74.8,32.2,30.13,ESE,110,7.3,7.3,21,0.00,,,0.00,561.48,VWS V14.01,2013-09-27 19:21:00,
2013-09-27 15:22:00,76.6,33.9,30.12,NE,40,4.0,7.3,21,0.00,,,0.00,558.73,VWS V14.01,2013-09-27 19:22:00,
2013-09-27 15:24:00,75.3,33.8,30.12,SE,138,6.6,6.8,22,0.00,,,0.00,556.11,VWS V14.01,2013-09-27 19:24:00,
2013-09-27 15:25:00,78.2,37.5,30.12,SSE,152,6.6,7.5,23,0.00,,,0.00,549.57,VWS V14.01,2013-09-27 19:25:00,
2013-09-27 15:26:00,77.1,36.3,30.12,ESE,107,4.5,6.6,23,0.00,,,0.00,551.95,VWS V14.01,2013-09-27 19:26:00,
2013-09-27 15:28:00,74.7,33.7,30.13,SE,140,6.6,9.3,22,0.00,,,0.00,547.07,VWS V14.01,2013-09-27 19:28:00,
2013-09-27 15:29:00,77.4,37.3,30.12,SSE,149,5.9,9.3,24,0.00,,,0.00,547.07,VWS V14.01,2013-09-27 19:29:00,
2013-09-27 15:30:00,75.4,33.6,30.12,SSE,158,9.7,9.7,22,0.00,,,0.00,546.83,VWS V14.01,2013-09-27 19:30:00,
2013-09-27 15:32:00,76.3,34.2,30.12,SSE,162,6.6,6.8,22,0.00,,,0.00,544.63,VWS V14.01,2013-09-27 19:32:00,
2013-09-27 15:33:00,75.9,33.7,30.13,SE,132,6.8,6.8,21,0.00,,,0.00,544.38,VWS V14.01,2013-09-27 19:33:00,
2013-09-27 15:35:00,75.2,32.3,30.12,SE,144,8.5,8.5,21,0.00,,,0.00,538.58,VWS V14.01,2013-09-27 19:35:00,
2013-09-27 15:37:00,76.6,33.6,30.13,ESE,103,5.2,8.8,21,0.00,,,0.00,522.41,VWS V14.01,2013-09-27 19:37:00,
2013-09-27 15:39:00,76.8,32.2,30.12,SE,141,5.9,6.4,20,0.00,,,0.00,534.92,VWS V14.01,2013-09-27 19:39:00,
2013-09-27 15:40:00,76.2,31.5,30.12,SE,133,5.4,8.8,19,0.00,,,0.00,538.03,VWS V14.01,2013-09-27 19:40:00,
2013-09-27 15:42:00,77.3,33.8,30.12,East,97,9.0,9.0,21,0.00,,,0.00,532.17,VWS V14.01,2013-09-27 19:42:00,
2013-09-27 15:43:00,76.3,31.9,30.11,NE,56,8.8,9.0,20,0.00,,,0.00,530.10,VWS V14.01,2013-09-27 19:43:00,
2013-09-27 15:44:00,74.0,30.0,30.11,ENE,69,6.6,6.6,20,0.00,,,0.00,518.62,VWS V14.01,2013-09-27 19:44:00,
2013-09-27 15:46:00,77.0,33.4,30.12,East,87,3.4,5.9,20,0.00,,,0.00,529.49,VWS V14.01,2013-09-27 19:46:00,
2013-09-27 15:47:00,78.6,33.4,30.12,SE,142,0.0,5.1,19,0.00,,,0.00,527.29,VWS V14.01,2013-09-27 19:47:00,
2013-09-27 15:48:00,77.4,32.5,30.12,South,177,5.1,5.1,19,0.00,,,0.00,513.31,VWS V14.01,2013-09-27 19:48:00,
2013-09-27 15:49:00,77.4,32.5,30.12,South,177,5.1,5.1,19,0.00,,,0.00,513.31,VWS V14.01,2013-09-27 19:49:00,
2013-09-27 15:52:00,75.8,31.9,30.11,East,91,6.1,6.1,20,0.00,,,0.00,523.63,VWS V14.01,2013-09-27 19:52:00,
2013-09-27 15:53:00,76.9,33.3,30.11,East,90,7.1,7.1,20,0.00,,,0.00,506.04,VWS V14.01,2013-09-27 19:53:00,
2013-09-27 15:54:00,77.9,34.3,30.12,NE,46,8.8,8.8,21,0.00,,,0.00,507.75,VWS V14.01,2013-09-27 19:54:00,
2013-09-27 15:57:00,77.8,34.1,30.12,ESE,122,5.4,8.7,21,0.00,,,0.00,508.61,VWS V14.01,2013-09-27 19:57:00,
2013-09-27 15:59:00,77.4,33.3,30.13,ESE,123,3.2,7.5,20,0.00,,,0.00,505.01,VWS V14.01,2013-09-27 19:59:00,
2013-09-27 16:00:00,77.4,33.5,30.12,ESE,123,5.9,5.9,20,0.00,,,0.00,503.36,VWS V14.01,2013-09-27 20:00:00,
2013-09-27 16:01:00,77.3,32.9,30.12,ESE,107,4.5,5.9,20,0.00,,,0.00,500.43,VWS V14.01,2013-09-27 20:01:00,
2013-09-27 16:03:00,76.6,32.5,30.11,East,94,4.0,6.1,20,0.00,,,0.00,488.22,VWS V14.01,2013-09-27 20:03:00,
2013-09-27 16:05:00,76.1,31.5,30.11,ESE,110,6.6,7.1,20,0.00,,,0.00,492.37,VWS V14.01,2013-09-27 20:05:00,
2013-09-27 16:06:00,76.4,31.5,30.12,SE,125,4.7,4.7,19,0.00,,,0.00,490.66,VWS V14.01,2013-09-27 20:06:00,
2013-09-27 16:07:00,76.7,32.3,30.12,South,187,3.2,4.7,20,0.00,,,0.00,488.22,VWS V14.01,2013-09-27 20:07:00,
2013-09-27 16:09:00,77.0,32.6,30.11,SE,130,3.7,5.6,20,0.00,,,0.00,483.33,VWS V14.01,2013-09-27 20:09:00,
2013-09-27 16:11:00,77.8,34.3,30.11,South,173,2.7,5.4,21,0.00,,,0.00,476.92,VWS V14.01,2013-09-27 20:11:00,
2013-09-27 16:13:00,76.4,31.8,30.11,South,171,5.6,8.1,20,0.00,,,0.00,471.31,VWS V14.01,2013-09-27 20:13:00,
2013-09-27 16:14:00,77.2,32.5,30.11,East,92,6.6,7.5,20,0.00,,,0.00,471.12,VWS V14.01,2013-09-27 20:14:00,
2013-09-27 16:17:00,76.8,33.0,30.12,NE,51,6.4,8.3,20,0.00,,,0.00,463.80,VWS V14.01,2013-09-27 20:17:00,
2013-09-27 16:19:00,76.8,33.7,30.11,SE,145,8.0,8.0,21,0.00,,,0.00,458.91,VWS V14.01,2013-09-27 20:19:00,
2013-09-27 16:20:00,76.5,32.7,30.11,ENE,77,5.4,8.0,20,0.00,,,0.00,459.28,VWS V14.01,2013-09-27 20:20:00,
2013-09-27 16:21:00,76.5,33.2,30.11,South,171,3.9,5.2,21,0.00,,,0.00,456.23,VWS V14.01,2013-09-27 20:21:00,
2013-09-27 16:22:00,76.6,33.3,30.11,SSE,153,4.2,10.0,21,0.00,,,0.00,454.03,VWS V14.01,2013-09-27 20:22:00,
2013-09-27 16:23:00,76.6,32.5,30.10,SE,146,4.4,5.6,20,0.00,,,0.00,452.81,VWS V14.01,2013-09-27 20:23:00,
2013-09-27 16:25:00,74.8,31.2,30.11,East,89,6.4,6.4,20,0.00,,,0.00,426.37,VWS V14.01,2013-09-27 20:25:00,
2013-09-27 16:26:00,77.9,35.3,30.11,SE,137,6.3,10.5,21,0.00,,,0.00,435.65,VWS V14.01,2013-09-27 20:26:00,
2013-09-27 16:27:00,76.9,33.8,30.11,ENE,72,7.5,7.5,21,0.00,,,0.00,425.95,VWS V14.01,2013-09-27 20:27:00,
2013-09-27 16:28:00,75.8,33.1,30.11,ESE,110,6.1,6.1,21,0.00,,,0.00,414.96,VWS V14.01,2013-09-27 20:28:00,
2013-09-27 16:29:00,77.1,34.4,30.11,SE,135,2.5,6.1,21,0.00,,,0.00,427.41,VWS V14.01,2013-09-27 20:29:00,
2013-09-27 16:30:00,76.3,33.1,30.11,East,87,4.7,5.1,21,0.00,,,0.00,399.08,VWS V14.01,2013-09-27 20:30:00,
2013-09-27 16:32:00,75.9,32.8,30.11,ENE,75,2.5,2.5,21,0.00,,,0.00,427.17,VWS V14.01,2013-09-27 20:32:00,
2013-09-27 16:33:00,75.8,32.1,30.11,NE,55,9.7,9.7,20,0.00,,,0.00,396.89,VWS V14.01,2013-09-27 20:33:00,
2013-09-27 16:34:00,77.1,33.1,30.11,East,79,6.1,9.7,20,0.00,,,0.00,413.37,VWS V14.01,2013-09-27 20:34:00,
2013-09-27 16:36:00,76.7,32.3,30.10,SSW,194,4.5,7.8,20,0.00,,,0.00,378.33,VWS V14.01,2013-09-27 20:36:00,
2013-09-27 16:38:00,75.6,31.4,30.10,ESE,114,8.1,8.1,20,0.00,,,0.00,428.08,VWS V14.01,2013-09-27 20:38:00,
2013-09-27 16:39:00,75.8,32.0,30.10,East,101,8.8,8.8,20,0.00,,,0.00,419.84,VWS V14.01,2013-09-27 20:39:00,
2013-09-27 16:42:00,76.1,32.7,30.11,East,80,7.6,7.6,20,0.00,,,0.00,401.04,VWS V14.01,2013-09-27 20:42:00,
2013-09-27 16:43:00,77.2,34.3,30.11,SE,141,2.7,8.3,21,0.00,,,0.00,418.13,VWS V14.01,2013-09-27 20:43:00,
2013-09-27 16:44:00,77.1,33.9,30.11,East,89,4.7,4.7,21,0.00,,,0.00,411.17,VWS V14.01,2013-09-27 20:44:00,
2013-09-27 16:45:00,76.3,32.7,30.10,SE,134,7.5,7.5,20,0.00,,,0.00,400.31,VWS V14.01,2013-09-27 20:45:00,
2013-09-27 16:47:00,76.0,32.9,30.10,East,95,6.3,6.3,21,0.00,,,0.00,395.42,VWS V14.01,2013-09-27 20:47:00,
2013-09-27 16:48:00,76.4,33.4,30.11,ESE,120,5.9,6.3,21,0.00,,,0.00,379.12,VWS V14.01,2013-09-27 20:48:00,
2013-09-27 16:49:00,76.2,33.0,30.11,ESE,121,4.7,4.7,21,0.00,,,0.00,383.82,VWS V14.01,2013-09-27 20:49:00,
2013-09-27 16:50:00,75.2,32.5,30.11,ENE,74,6.6,6.6,21,0.00,,,0.00,324.11,VWS V14.01,2013-09-27 20:50:00,
2013-09-27 16:52:00,75.9,33.3,30.11,ESE,107,5.7,8.8,21,0.00,,,0.00,336.45,VWS V14.01,2013-09-27 20:52:00,
2013-09-27 16:53:00,76.0,33.9,30.11,ENE,59,9.0,9.0,22,0.00,,,0.00,364.59,VWS V14.01,2013-09-27 20:53:00,
2013-09-27 16:54:00,75.2,32.5,30.11,ESE,117,9.5,9.5,21,0.00,,,0.00,373.44,VWS V14.01,2013-09-27 20:54:00,
2013-09-27 16:56:00,75.6,33.6,30.11,SE,127,7.8,7.8,22,0.00,,,0.00,349.33,VWS V14.01,2013-09-27 20:56:00,
2013-09-27 16:57:00,75.3,33.3,30.11,East,86,7.5,7.8,21,0.00,,,0.00,359.52,VWS V14.01,2013-09-27 20:57:00,
2013-09-27 16:59:00,76.5,34.8,30.10,East,80,3.5,6.9,22,0.00,,,0.00,366.12,VWS V14.01,2013-09-27 20:59:00,
2013-09-27 17:03:00,76.1,33.9,30.10,ESE,115,5.4,9.9,21,0.00,,,0.00,202.50,VWS V14.01,2013-09-27 21:03:00,
2013-09-27 17:05:00,75.6,33.7,30.10,ENE,66,6.3,9.7,22,0.00,,,0.00,350.00,VWS V14.01,2013-09-27 21:05:00,
2013-09-27 17:06:00,75.4,33.0,30.10,South,178,9.7,9.7,21,0.00,,,0.00,347.07,VWS V14.01,2013-09-27 21:06:00,
2013-09-27 17:07:00,74.8,32.6,30.11,East,93,7.8,7.8,21,0.00,,,0.00,344.38,VWS V14.01,2013-09-27 21:07:00,
2013-09-27 17:08:00,74.7,32.6,30.11,ESE,107,9.9,9.9,21,0.00,,,0.00,341.70,VWS V14.01,2013-09-27 21:08:00,
2013-09-27 17:11:00,74.8,32.9,30.11,East,95,10.7,10.7,21,0.00,,,0.00,339.01,VWS V14.01,2013-09-27 21:11:00,
2013-09-27 17:12:00,74.6,33.2,30.10,NE,52,10.5,10.5,22,0.00,,,0.00,321.18,VWS V14.01,2013-09-27 21:12:00,
2013-09-27 17:13:00,74.9,33.8,30.10,East,86,7.3,10.5,22,0.00,,,0.00,317.95,VWS V14.01,2013-09-27 21:13:00,
2013-09-27 17:16:00,75.4,34.7,30.11,SSE,164,5.7,5.7,23,0.00,,,0.00,324.60,VWS V14.01,2013-09-27 21:16:00,
2013-09-27 17:18:00,75.0,33.7,30.11,East,91,7.5,7.8,22,0.00,,,0.00,319.72,VWS V14.01,2013-09-27 21:18:00,
2013-09-27 17:20:00,74.1,33.1,30.11,ESE,104,8.3,8.5,22,0.00,,,0.00,317.22,VWS V14.01,2013-09-27 21:20:00,
2013-09-27 17:21:00,74.5,33.9,30.10,East,94,7.6,8.8,23,0.00,,,0.00,304.09,VWS V14.01,2013-09-27 21:21:00,
2013-09-27 17:23:00,75.3,34.5,30.11,East,84,5.9,5.9,23,0.00,,,0.00,309.65,VWS V14.01,2013-09-27 21:23:00,
2013-09-27 17:24:00,75.0,34.1,30.11,East,93,8.1,8.1,22,0.00,,,0.00,285.53,VWS V14.01,2013-09-27 21:24:00,
2013-09-27 17:25:00,75.2,34.6,30.10,East,79,3.9,5.4,23,0.00,,,0.00,229.98,VWS V14.01,2013-09-27 21:25:00,
2013-09-27 17:27:00,73.8,33.0,30.10,SE,126,7.8,7.8,22,0.00,,,0.00,187.36,VWS V14.01,2013-09-27 21:27:00,
2013-09-27 17:29:00,73.9,33.3,30.10,East,98,8.5,8.5,23,0.00,,,0.00,268.50,VWS V14.01,2013-09-27 21:29:00,
2013-09-27 17:30:00,74.4,34.2,30.10,ENE,75,8.1,8.1,23,0.00,,,0.00,246.15,VWS V14.01,2013-09-27 21:30:00,
2013-09-27 17:32:00,74.4,34.6,30.10,SE,133,4.0,5.9,23,0.00,,,0.00,175.89,VWS V14.01,2013-09-27 21:32:00,
2013-09-27 17:33:00,73.9,33.8,30.10,ESE,118,7.1,7.1,23,0.00,,,0.00,192.25,VWS V14.01,2013-09-27 21:33:00,
2013-09-27 17:34:00,73.6,33.9,30.10,ESE,123,6.3,6.3,23,0.00,,,0.00,153.97,VWS V14.01,2013-09-27 21:34:00,
2013-09-27 17:35:00,73.6,33.8,30.11,SSE,150,5.6,5.6,23,0.00,,,0.00,197.44,VWS V14.01,2013-09-27 21:35:00,
2013-09-27 17:39:00,73.1,34.0,30.10,SE,130,7.6,9.2,24,0.00,,,0.00,188.10,VWS V14.01,2013-09-27 21:39:00,
2013-09-27 17:40:00,72.9,33.8,30.11,SE,124,8.5,8.5,24,0.00,,,0.00,136.26,VWS V14.01,2013-09-27 21:40:00,
2013-09-27 17:41:00,72.9,34.1,30.11,East,91,6.1,6.1,24,0.00,,,0.00,165.57,VWS V14.01,2013-09-27 21:41:00,
2013-09-27 17:44:00,73.7,35.2,30.11,East,100,3.7,6.9,25,0.00,,,0.00,241.82,VWS V14.01,2013-09-27 21:44:00,
2013-09-27 17:46:00,73.3,34.4,30.11,ENE,67,7.3,7.3,24,0.00,,,0.00,201.77,VWS V14.01,2013-09-27 21:46:00,
2013-09-27 17:49:00,73.7,35.2,30.11,ENE,76,5.7,9.3,25,0.00,,,0.00,248.90,VWS V14.01,2013-09-27 21:49:00,
2013-09-27 17:51:00,73.8,35.5,30.11,SE,139,4.4,9.5,25,0.00,,,0.00,188.10,VWS V14.01,2013-09-27 21:51:00,
2013-09-27 17:52:00,72.7,34.6,30.11,ESE,115,6.8,6.8,25,0.00,,,0.00,209.83,VWS V14.01,2013-09-27 21:52:00,
2013-09-27 17:53:00,73.5,35.5,30.11,NE,45,4.7,7.1,25,0.00,,,0.00,197.31,VWS V14.01,2013-09-27 21:53:00,
2013-09-27 17:54:00,73.5,35.4,30.11,East,97,6.1,6.1,25,0.00,,,0.00,210.07,VWS V14.01,2013-09-27 21:54:00,
2013-09-27 17:56:00,72.6,35.0,30.11,ESE,112,6.1,8.3,25,0.00,,,0.00,184.31,VWS V14.01,2013-09-27 21:56:00,
2013-09-27 17:58:00,72.7,35.3,30.11,ESE,106,4.5,6.1,25,0.00,,,0.00,129.24,VWS V14.01,2013-09-27 21:58:00,
2013-09-27 17:59:00,72.3,34.9,30.11,ESE,116,9.3,9.3,25,0.00,,,0.00,131.44,VWS V14.01,2013-09-27 21:59:00,
2013-09-27 18:01:00,72.3,35.6,30.11,ESE,109,5.7,5.7,26,0.00,,,0.00,143.90,VWS V14.01,2013-09-27 22:01:00,
2013-09-27 18:03:00,72.1,35.3,30.12,ENE,75,7.3,7.3,26,0.00,,,0.00,117.34,VWS V14.01,2013-09-27 22:03:00,
2013-09-27 18:04:00,71.8,35.2,30.11,ESE,112,8.0,10.4,26,0.00,,,0.00,163.68,VWS V14.01,2013-09-27 22:04:00,
2013-09-27 18:07:00,71.6,35.2,30.11,East,96,4.7,4.7,26,0.00,,,0.00,103.30,VWS V14.01,2013-09-27 22:07:00,
2013-09-27 18:08:00,71.4,35.6,30.11,ENE,76,8.1,8.1,27,0.00,,,0.00,90.48,VWS V14.01,2013-09-27 22:08:00,
2013-09-27 18:09:00,71.1,35.7,30.11,East,99,8.5,9.2,27,0.00,,,0.00,57.20,VWS V14.01,2013-09-27 22:09:00,
2013-09-27 18:12:00,70.7,36.2,30.12,ENE,59,5.6,7.1,28,0.00,,,0.00,47.13,VWS V14.01,2013-09-27 22:12:00,
2013-09-27 18:13:00,70.3,36.1,30.12,ENE,69,4.2,9.0,28,0.00,,,0.00,41.94,VWS V14.01,2013-09-27 22:13:00,
2013-09-27 18:14:00,70.4,36.2,30.12,East,87,10.2,10.2,28,0.00,,,0.00,43.22,VWS V14.01,2013-09-27 22:14:00,
2013-09-27 18:15:00,70.6,36.5,30.12,ESE,112,5.7,10.2,29,0.00,,,0.00,46.58,VWS V14.01,2013-09-27 22:15:00,
2013-09-27 18:18:00,70.7,36.7,30.12,East,81,5.7,5.7,29,0.00,,,0.00,137.42,VWS V14.01,2013-09-27 22:18:00,
2013-09-27 18:19:00,70.9,36.9,30.12,SE,137,5.9,6.3,29,0.00,,,0.00,161.54,VWS V14.01,2013-09-27 22:19:00,
2013-09-27 18:20:00,70.9,36.8,30.14,East,84,5.9,7.1,29,0.00,,,0.00,164.16,VWS V14.01,2013-09-27 22:20:00,
2013-09-27 18:24:00,70.9,36.4,30.12,ESE,105,5.7,6.4,28,0.00,,,0.00,157.81,VWS V14.01,2013-09-27 22:24:00,
2013-09-27 18:25:00,70.9,36.1,30.12,SE,145,8.0,8.0,28,0.00,,,0.00,156.11,VWS V14.01,2013-09-27 22:25:00,
2013-09-27 18:29:00,70.6,36.1,30.14,SE,125,4.4,8.1,28,0.00,,,0.00,122.53,VWS V14.01,2013-09-27 22:29:00,
2013-09-27 18:30:00,70.5,35.9,30.13,East,97,9.2,9.2,28,0.00,,,0.00,129.24,VWS V14.01,2013-09-27 22:30:00,
2013-09-27 18:32:00,70.6,36.3,30.13,ENE,72,5.1,5.4,28,0.00,,,0.00,139.01,VWS V14.01,2013-09-27 22:32:00,
2013-09-27 18:34:00,70.5,33.4,30.12,East,87,4.5,5.1,25,0.00,,,0.00,131.69,VWS V14.01,2013-09-27 22:34:00,
2013-09-27 18:35:00,70.6,36.3,30.13,ESE,105,3.2,5.1,28,0.00,,,0.00,130.10,VWS V14.01,2013-09-27 22:35:00,
2013-09-27 18:36:00,70.4,36.1,30.13,East,96,4.9,6.8,28,0.00,,,0.00,120.82,VWS V14.01,2013-09-27 22:36:00,
2013-09-27 18:37:00,70.2,35.8,30.12,ESE,109,7.8,7.8,28,0.00,,,0.00,121.92,VWS V14.01,2013-09-27 22:37:00,
2013-09-27 18:40:00,70.1,36.3,30.12,East,89,4.9,4.9,29,0.00,,,0.00,80.89,VWS V14.01,2013-09-27 22:40:00,
2013-09-27 18:41:00,69.7,36.3,30.12,NNE,24,4.5,4.9,29,0.00,,,0.00,61.48,VWS V14.01,2013-09-27 22:41:00,
2013-09-27 18:43:00,69.7,36.4,30.12,SSE,164,8.8,10.0,29,0.00,,,0.00,71.55,VWS V14.01,2013-09-27 22:43:00,
2013-09-27 18:45:00,69.4,36.9,30.12,NE,46,5.7,6.3,30,0.00,,,0.00,77.72,VWS V14.01,2013-09-27 22:45:00,
2013-09-27 18:46:00,69.4,37.1,30.12,East,100,5.2,6.9,31,0.00,,,0.00,90.42,VWS V14.01,2013-09-27 22:46:00,
2013-09-27 18:47:00,69.5,37.3,30.12,East,92,5.2,5.2,31,0.00,,,0.00,95.06,VWS V14.01,2013-09-27 22:47:00,
2013-09-27 18:48:00,69.4,37.2,30.13,ESE,107,5.1,5.1,31,0.00,,,0.00,98.96,VWS V14.01,2013-09-27 22:48:00,
2013-09-27 18:49:00,69.4,37.3,30.12,ENE,62,6.4,7.1,31,0.00,,,0.00,77.96,VWS V14.01,2013-09-27 22:49:00,
2013-09-27 18:52:00,69.4,37.8,30.12,ENE,77,3.5,5.9,31,0.00,,,0.00,87.73,VWS V14.01,2013-09-27 22:52:00,
2013-09-27 18:54:00,69.4,38.0,30.12,ESE,119,7.6,7.6,32,0.00,,,0.00,83.94,VWS V14.01,2013-09-27 22:54:00,
2013-09-27 18:56:00,69.2,37.9,30.12,East,95,6.8,7.1,32,0.00,,,0.00,78.21,VWS V14.01,2013-09-27 22:56:00,
2013-09-27 18:57:00,69.1,38.0,30.12,East,83,6.3,9.0,32,0.00,,,0.00,75.52,VWS V14.01,2013-09-27 22:57:00,
2013-09-27 18:58:00,69.0,38.0,30.12,SE,125,7.3,9.0,32,0.00,,,0.00,73.08,VWS V14.01,2013-09-27 22:58:00,
2013-09-27 18:59:00,68.8,38.0,30.13,ESE,107,6.1,7.3,32,0.00,,,0.00,66.67,VWS V14.01,2013-09-27 22:59:00,
2013-09-27 19:01:00,68.4,38.1,30.12,East,94,5.4,6.6,33,0.00,,,0.00,67.28,VWS V14.01,2013-09-27 23:01:00,
2013-09-27 19:04:00,68.2,38.3,30.12,ENE,74,5.7,7.6,33,0.00,,,0.00,57.14,VWS V14.01,2013-09-27 23:04:00,
2013-09-27 19:05:00,68.1,38.4,30.12,East,92,3.9,5.7,34,0.00,,,0.00,55.68,VWS V14.01,2013-09-27 23:05:00,
2013-09-27 19:06:00,68.2,38.3,30.13,East,98,3.9,5.7,33,0.00,,,0.00,54.27,VWS V14.01,2013-09-27 23:06:00,
2013-09-27 19:07:00,68.3,38.4,30.13,ESE,112,5.1,5.1,33,0.00,,,0.00,54.15,VWS V14.01,2013-09-27 23:07:00,
2013-09-27 19:09:00,68.2,38.6,30.13,ESE,114,4.4,4.4,34,0.00,,,0.00,46.21,VWS V14.01,2013-09-27 23:09:00,
2013-09-27 19:10:00,68.1,38.5,30.13,East,80,2.3,9.3,34,0.00,,,0.00,41.58,VWS V14.01,2013-09-27 23:10:00,
2013-09-27 19:11:00,67.8,38.5,30.13,East,100,4.4,4.4,34,0.00,,,0.00,41.33,VWS V14.01,2013-09-27 23:11:00,
2013-09-27 19:14:00,67.5,38.7,30.13,ESE,115,4.4,4.4,35,0.00,,,0.00,34.00,VWS V14.01,2013-09-27 23:14:00,
2013-09-27 19:16:00,67.4,39.1,30.13,ENE,69,4.5,6.3,35,0.00,,,0.00,26.68,VWS V14.01,2013-09-27 23:16:00,
2013-09-27 19:17:00,67.2,39.0,30.13,East,94,4.7,4.7,35,0.00,,,0.00,24.48,VWS V14.01,2013-09-27 23:17:00,
2013-09-27 19:18:00,66.8,39.0,30.13,ENE,69,3.2,4.7,36,0.00,,,0.00,22.04,VWS V14.01,2013-09-27 23:18:00,
2013-09-27 19:19:00,67.2,39.6,30.13,SE,133,3.9,3.9,36,0.00,,,0.00,19.35,VWS V14.01,2013-09-27 23:19:00,
2013-09-27 19:21:00,66.0,39.3,30.13,ENE,62,1.1,3.4,37,0.00,,,0.00,12.03,VWS V14.01,2013-09-27 23:21:00,
2013-09-27 19:22:00,65.8,39.2,30.13,East,91,1.5,1.5,38,0.00,,,0.00,11.54,VWS V14.01,2013-09-27 23:22:00,
2013-09-27 19:23:00,65.5,39.2,30.13,East,87,1.3,1.5,38,0.00,,,0.00,10.20,VWS V14.01,2013-09-27 23:23:00,
2013-09-27 19:24:00,65.3,39.4,30.11,NNE,33,3.0,3.0,39,0.00,,,0.00,8.85,VWS V14.01,2013-09-27 23:24:00,
2013-09-27 19:27:00,65.2,40.2,30.12,ESE,108,2.3,3.9,40,0.00,,,0.00,5.49,VWS V14.01,2013-09-27 23:27:00,
2013-09-27 19:29:00,65.0,40.6,30.12,ESE,107,4.2,4.2,41,0.00,,,0.00,8.36,VWS V14.01,2013-09-27 23:29:00,
2013-09-27 19:30:00,65.7,41.3,30.12,ESE,117,4.7,4.7,41,0.00,,,0.00,8.12,VWS V14.01,2013-09-27 23:30:00,
2013-09-27 19:33:00,64.2,40.7,30.12,East,97,2.7,3.2,42,0.00,,,0.00,7.75,VWS V14.01,2013-09-27 23:33:00,
2013-09-27 19:34:00,64.3,41.1,30.13,ENE,63,1.5,3.0,43,0.00,,,0.00,7.45,VWS V14.01,2013-09-27 23:34:00,
2013-09-27 19:35:00,64.2,41.5,30.12,East,100,2.7,3.0,43,0.00,,,0.00,6.11,VWS V14.01,2013-09-27 23:35:00,
2013-09-27 19:36:00,64.1,41.7,30.13,ESE,102,2.8,3.0,44,0.00,,,0.00,5.68,VWS V14.01,2013-09-27 23:36:00,
2013-09-27 19:39:00,64.0,41.9,30.13,East,81,2.7,3.2,44,0.00,,,0.00,5.01,VWS V14.01,2013-09-27 23:39:00,
2013-09-27 19:40:00,63.9,42.0,30.13,ESE,112,2.5,2.7,45,0.00,,,0.00,4.76,VWS V14.01,2013-09-27 23:40:00,
2013-09-27 19:41:00,63.8,42.1,30.12,East,94,2.8,2.8,45,0.00,,,0.00,2.44,VWS V14.01,2013-09-27 23:41:00,
2013-09-27 19:43:00,63.6,42.5,30.13,East,87,0.0,3.0,46,0.00,,,0.00,0.00,VWS V14.01,2013-09-27 23:43:00,
2013-09-27 19:44:00,63.7,43.0,30.13,East,101,2.7,2.7,47,0.00,,,0.00,0.55,VWS V14.01,2013-09-27 23:44:00,
2013-09-27 19:45:00,63.1,42.5,30.13,East,83,1.1,2.7,47,0.00,,,0.00,0.12,VWS V14.01,2013-09-27 23:45:00,
2013-09-27 19:48:00,63.0,43.2,30.12,East,80,2.3,3.4,48,0.00,,,0.00,0.00,VWS V14.01,2013-09-27 23:48:00,
2013-09-27 19:49:00,62.8,43.4,30.12,East,96,2.2,2.2,49,0.00,,,0.00,0.00,VWS V14.01,2013-09-27 23:49:00,
2013-09-27 19:51:00,62.5,43.5,30.12,East,83,1.1,2.2,50,0.00,,,0.00,0.00,VWS V14.01,2013-09-27 23:51:00,
2013-09-27 19:53:00,62.5,43.8,30.13,East,92,2.3,2.3,50,0.00,,,0.00,0.73,VWS V14.01,2013-09-27 23:53:00,
2013-09-27 19:54:00,62.0,43.9,30.12,ENE,74,2.7,2.7,51,0.00,,,0.00,0.43,VWS V14.01,2013-09-27 23:54:00,
2013-09-27 19:56:00,61.4,43.5,30.13,ENE,77,2.2,2.7,52,0.00,,,0.00,0.00,VWS V14.01,2013-09-27 23:56:00,
2013-09-27 19:58:00,61.6,44.4,30.13,East,86,2.3,2.5,53,0.00,,,0.00,0.00,VWS V14.01,2013-09-27 23:58:00,
2013-09-27 20:01:00,61.1,44.8,30.12,ENE,77,2.3,2.5,55,0.00,,,0.00,0.00,VWS V14.01,2013-09-28 00:01:00,
2013-09-27 20:02:00,60.7,44.3,30.12,ESE,115,2.5,2.5,55,0.00,,,0.00,0.00,VWS V14.01,2013-09-28 00:02:00,
2013-09-27 20:04:00,60.8,45.0,30.12,East,85,2.2,2.5,56,0.00,,,0.00,0.12,VWS V14.01,2013-09-28 00:04:00,
2013-09-27 20:06:00,61.0,45.3,30.13,ENE,76,2.3,2.7,56,0.00,,,0.00,0.00,VWS V14.01,2013-09-28 00:06:00,
2013-09-27 20:07:00,61.0,45.3,30.13,ENE,76,2.3,2.7,56,0.00,,,0.00,0.00,VWS V14.01,2013-09-28 00:07:00,
2013-09-27 20:08:00,61.0,45.4,30.16,East,87,2.7,2.7,57,0.00,,,0.00,0.00,VWS V14.01,2013-09-28 00:08:00,
2013-09-27 20:11:00,61.4,46.6,30.12,ESE,105,3.0,3.0,58,0.00,,,0.00,0.00,VWS V14.01,2013-09-28 00:11:00,
2013-09-27 20:14:00,60.9,46.3,30.13,East,85,2.0,4.4,59,0.00,,,0.00,0.00,VWS V14.01,2013-09-28 00:14:00,
2013-09-27 20:16:00,61.0,46.6,30.14,East,89,2.2,4.4,59,0.00,,,0.00,0.00,VWS V14.01,2013-09-28 00:16:00,
2013-09-27 20:17:00,61.0,46.6,30.14,East,89,2.2,4.4,59,0.00,,,0.00,0.00,VWS V14.01,2013-09-28 00:17:00,
2013-09-27 20:18:00,60.2,45.9,30.13,East,94,2.2,4.4,59,0.00,,,0.00,0.12,VWS V14.01,2013-09-28 00:18:00,
2013-09-27 20:21:00,60.0,46.2,30.14,East,79,2.2,4.4,60,0.00,,,0.00,0.00,VWS V14.01,2013-09-28 00:21:00,
2013-09-27 20:23:00,60.2,46.6,30.13,ESE,117,2.8,4.4,61,0.00,,,0.00,0.00,VWS V14.01,2013-09-28 00:23:00,
2013-09-27 20:24:00,60.2,46.6,30.13,ESE,117,2.8,4.4,61,0.00,,,0.00,0.00,VWS V14.01,2013-09-28 00:24:00,
2013-09-27 20:25:00,60.4,47.1,30.13,East,84,2.8,4.4,61,0.00,,,0.00,0.00,VWS V14.01,2013-09-28 00:25:00,
2013-09-27 20:28:00,60.1,46.8,30.13,East,87,2.5,4.4,62,0.00,,,0.00,0.00,VWS V14.01,2013-09-28 00:28:00,
2013-09-27 20:29:00,60.7,47.6,30.13,ESE,104,3.0,4.4,62,0.00,,,0.00,0.00,VWS V14.01,2013-09-28 00:29:00,
2013-09-27 20:31:00,59.2,46.7,30.13,East,83,1.3,4.4,63,0.00,,,0.00,0.00,VWS V14.01,2013-09-28 00:31:00,
2013-09-27 20:32:00,60.6,48.4,30.13,East,92,4.0,4.4,64,0.00,,,0.00,0.00,VWS V14.01,2013-09-28 00:32:00,
2013-09-27 20:33:00,59.5,47.2,30.12,East,81,2.7,4.4,64,0.00,,,0.00,0.00,VWS V14.01,2013-09-28 00:33:00,
2013-09-27 20:34:00,60.6,48.4,30.13,ESE,112,3.0,4.4,64,0.00,,,0.00,0.00,VWS V14.01,2013-09-28 00:34:00,
2013-09-27 20:36:00,60.0,48.1,30.13,East,92,4.0,4.4,65,0.00,,,0.00,0.00,VWS V14.01,2013-09-28 00:36:00,
2013-09-27 20:37:00,59.3,47.2,30.13,ESE,111,1.0,4.4,64,0.00,,,0.00,0.00,VWS V14.01,2013-09-28 00:37:00,
2013-09-27 20:39:00,59.5,47.8,30.13,ESE,103,2.0,4.4,65,0.00,,,0.00,0.12,VWS V14.01,2013-09-28 00:39:00,
2013-09-27 20:41:00,59.4,48.0,30.12,ENE,66,1.8,4.4,66,0.00,,,0.00,0.00,VWS V14.01,2013-09-28 00:41:00,
2013-09-27 20:42:00,60.6,49.3,30.13,East,83,3.5,4.4,66,0.00,,,0.00,0.43,VWS V14.01,2013-09-28 00:42:00,
2013-09-27 20:43:00,60.6,49.3,30.13,East,83,3.5,4.4,66,0.00,,,0.00,0.43,VWS V14.01,2013-09-28 00:43:00,
2013-09-27 20:44:00,59.7,48.2,30.13,ENE,65,1.8,4.4,66,0.00,,,0.00,0.12,VWS V14.01,2013-09-28 00:44:00,
2013-09-27 20:45:00,59.0,47.6,30.13,ENE,68,0.0,4.4,66,0.00,,,0.00,0.73,VWS V14.01,2013-09-28 00:45:00,
2013-09-27 20:49:00,59.6,48.9,30.14,East,86,1.8,4.4,68,0.00,,,0.00,0.00,VWS V14.01,2013-09-28 00:49:00,
2013-09-27 20:51:00,59.5,48.8,30.13,East,82,2.0,4.4,68,0.00,,,0.00,0.00,VWS V14.01,2013-09-28 00:51:00,
2013-09-27 20:52:00,59.7,49.1,30.14,ENE,78,2.3,4.4,68,0.00,,,0.00,0.00,VWS V14.01,2013-09-28 00:52:00,
2013-09-27 20:54:00,59.2,48.8,30.14,East,82,2.8,4.4,68,0.00,,,0.00,0.00,VWS V14.01,2013-09-28 00:54:00,
2013-09-27 20:55:00,59.4,48.9,30.14,East,89,3.2,4.4,68,0.00,,,0.00,0.00,VWS V14.01,2013-09-28 00:55:00,
2013-09-27 20:57:00,59.7,49.5,30.14,East,83,2.2,4.4,69,0.00,,,0.00,0.12,VWS V14.01,2013-09-28 00:57:00,
2013-09-27 20:59:00,58.6,47.7,30.14,East,85,2.3,4.4,67,0.00,,,0.00,0.00,VWS V14.01,2013-09-28 00:59:00,
2013-09-27 21:00:00,59.3,49.2,30.14,East,82,2.3,4.4,69,0.00,,,0.00,0.00,VWS V14.01,2013-09-28 01:00:00,
2013-09-27 21:01:00,58.7,48.8,30.14,ENE,59,2.5,4.4,70,0.00,,,0.00,0.00,VWS V14.01,2013-09-28 01:01:00,
2013-09-27 21:04:00,58.9,49.5,30.15,East,80,2.7,2.8,71,0.00,,,0.00,0.00,VWS V14.01,2013-09-28 01:04:00,
2013-09-27 21:06:00,58.7,49.3,30.14,East,88,2.3,2.3,71,0.00,,,0.00,0.12,VWS V14.01,2013-09-28 01:06:00,
2013-09-27 21:07:00,58.9,49.5,30.14,ENE,64,2.5,2.5,71,0.00,,,0.00,0.43,VWS V14.01,2013-09-28 01:07:00,
2013-09-27 21:09:00,58.5,49.3,30.14,East,79,1.0,2.5,71,0.00,,,0.00,0.00,VWS V14.01,2013-09-28 01:09:00,
2013-09-27 21:11:00,59.3,50.1,30.14,East,92,2.7,2.7,71,0.00,,,0.00,0.00,VWS V14.01,2013-09-28 01:11:00,
2013-09-27 21:12:00,58.5,49.2,30.15,East,88,1.5,2.7,71,0.00,,,0.00,0.00,VWS V14.01,2013-09-28 01:12:00,
2013-09-27 21:13:00,58.5,49.3,30.14,East,81,1.1,2.0,71,0.00,,,0.00,0.00,VWS V14.01,2013-09-28 01:13:00,
2013-09-27 21:14:00,58.8,49.9,30.14,ENE,74,2.7,2.7,72,0.00,,,0.00,0.73,VWS V14.01,2013-09-28 01:14:00,
2013-09-27 21:15:00,58.7,49.8,30.14,ESE,118,2.7,2.7,72,0.00,,,0.00,0.00,VWS V14.01,2013-09-28 01:15:00,
2013-09-27 21:17:00,58.2,49.3,30.14,East,85,2.2,2.7,72,0.00,,,0.00,0.43,VWS V14.01,2013-09-28 01:17:00,
2013-09-27 21:18:00,58.0,49.2,30.15,East,90,2.3,2.5,72,0.00,,,0.00,0.00,VWS V14.01,2013-09-28 01:18:00,
2013-09-27 21:20:00,59.2,50.7,30.14,ENE,74,3.5,3.5,73,0.00,,,0.00,0.00,VWS V14.01,2013-09-28 01:20:00,
2013-09-27 21:22:00,58.2,49.6,30.15,ESE,108,2.2,2.2,73,0.00,,,0.00,0.00,VWS V14.01,2013-09-28 01:22:00,
2013-09-27 21:23:00,57.8,49.2,30.13,East,91,2.5,2.5,73,0.00,,,0.00,0.00,VWS V14.01,2013-09-28 01:23:00,
2013-09-27 21:24:00,58.4,49.8,30.14,East,83,2.5,3.0,73,0.00,,,0.00,0.00,VWS V14.01,2013-09-28 01:24:00,
2013-09-27 21:25:00,58.0,49.3,30.18,East,88,1.0,3.4,73,0.00,,,0.00,0.00,VWS V14.01,2013-09-28 01:25:00,
2013-09-27 21:29:00,58.0,49.7,30.14,East,87,1.3,1.8,74,0.00,,,0.00,0.00,VWS V14.01,2013-09-28 01:29:00,
2013-09-27 21:30:00,57.9,49.7,30.15,East,87,1.0,2.0,74,0.00,,,0.00,0.00,VWS V14.01,2013-09-28 01:30:00,
2013-09-27 21:31:00,58.8,50.7,30.15,East,97,3.9,3.9,74,0.00,,,0.00,0.73,VWS V14.01,2013-09-28 01:31:00,
2013-09-27 21:34:00,57.4,49.3,30.15,East,84,0.0,1.1,74,0.00,,,0.00,0.43,VWS V14.01,2013-09-28 01:34:00,
2013-09-27 21:36:00,58.2,50.4,30.15,ENE,65,2.0,2.0,75,0.00,,,0.00,0.00,VWS V14.01,2013-09-28 01:36:00,
2013-09-27 21:37:00,58.6,50.7,30.15,ENE,74,3.2,3.2,75,0.00,,,0.00,0.00,VWS V14.01,2013-09-28 01:37:00,
2013-09-27 21:38:00,57.6,47.5,30.15,East,97,1.1,3.2,69,0.00,,,0.00,0.00,VWS V14.01,2013-09-28 01:38:00,
2013-09-27 21:40:00,57.0,48.7,30.15,ENE,76,0.0,3.2,74,0.00,,,0.00,0.00,VWS V14.01,2013-09-28 01:40:00,
2013-09-27 21:42:00,57.3,49.3,30.15,ENE,72,1.6,1.6,75,0.00,,,0.00,0.00,VWS V14.01,2013-09-28 01:42:00,
2013-09-27 21:43:00,57.3,49.4,30.16,ENE,60,0.0,2.0,75,0.00,,,0.00,0.00,VWS V14.01,2013-09-28 01:43:00,
2013-09-27 21:44:00,57.5,49.7,30.15,ESE,108,2.7,2.7,75,0.00,,,0.00,0.43,VWS V14.01,2013-09-28 01:44:00,
2013-09-27 21:47:00,58.2,50.2,30.16,East,85,1.1,1.1,75,0.00,,,0.00,0.12,VWS V14.01,2013-09-28 01:47:00,
2013-09-27 21:49:00,57.7,49.5,30.15,NE,41,0.0,2.3,74,0.00,,,0.00,0.00,VWS V14.01,2013-09-28 01:49:00,
2013-09-27 21:50:00,57.9,50.0,30.15,ENE,68,2.2,2.2,75,0.00,,,0.00,0.43,VWS V14.01,2013-09-28 01:50:00,
2013-09-27 21:51:00,57.3,49.4,30.15,ENE,73,2.3,2.3,75,0.00,,,0.00,0.00,VWS V14.01,2013-09-28 01:51:00,
2013-09-27 21:54:00,57.5,49.6,30.16,ENE,66,2.5,2.5,75,0.00,,,0.00,0.73,VWS V14.01,2013-09-28 01:54:00,
2013-09-27 21:55:00,57.5,49.4,30.15,ENE,65,1.3,2.5,74,0.00,,,0.00,0.00,VWS V14.01,2013-09-28 01:55:00,
2013-09-27 21:56:00,56.6,48.6,30.16,ENE,70,0.0,2.5,75,0.00,,,0.00,0.00,VWS V14.01,2013-09-28 01:56:00,
2013-09-27 22:00:00,56.7,49.2,30.16,ENE,66,0.0,0.0,76,0.00,,,0.00,0.12,VWS V14.01,2013-09-28 02:00:00,
2013-09-27 22:02:00,57.7,50.5,30.16,ENE,67,1.8,1.8,77,0.00,,,0.00,0.00,VWS V14.01,2013-09-28 02:02:00,
2013-09-27 22:05:00,57.0,49.6,30.16,ENE,70,2.0,2.7,76,0.00,,,0.00,0.12,VWS V14.01,2013-09-28 02:05:00,
2013-09-27 22:06:00,56.6,49.2,30.16,ENE,59,2.3,2.7,76,0.00,,,0.00,0.00,VWS V14.01,2013-09-28 02:06:00,
2013-09-27 22:09:00,57.0,49.8,30.15,ENE,59,1.0,2.8,77,0.00,,,0.00,0.73,VWS V14.01,2013-09-28 02:09:00,
2013-09-27 22:10:00,56.7,49.7,30.15,NE,48,2.2,2.8,77,0.00,,,0.00,0.00,VWS V14.01,2013-09-28 02:10:00,
2013-09-27 22:11:00,57.3,50.2,30.15,ENE,60,2.3,2.8,77,0.00,,,0.00,0.00,VWS V14.01,2013-09-28 02:11:00,
2013-09-27 22:12:00,56.8,49.6,30.15,ENE,71,2.3,2.8,77,0.00,,,0.00,0.00,VWS V14.01,2013-09-28 02:12:00,
2013-09-27 22:15:00,57.0,49.7,30.16,ENE,62,1.8,2.8,77,0.00,,,0.00,0.00,VWS V14.01,2013-09-28 02:15:00,
2013-09-27 22:16:00,56.5,49.2,30.17,ENE,62,1.5,2.8,76,0.00,,,0.00,0.12,VWS V14.01,2013-09-28 02:16:00,
2013-09-27 22:17:00,57.2,50.0,30.16,ENE,62,2.2,2.8,77,0.00,,,0.00,0.00,VWS V14.01,2013-09-28 02:17:00,
2013-09-27 22:18:00,57.2,50.2,30.16,ENE,57,2.0,2.8,77,0.00,,,0.00,0.00,VWS V14.01,2013-09-28 02:18:00,
2013-09-27 22:20:00,56.9,49.9,30.16,ENE,57,1.1,2.8,77,0.00,,,0.00,0.00,VWS V14.01,2013-09-28 02:20:00,
2013-09-27 22:22:00,56.3,48.0,30.15,ENE,57,1.0,2.8,73,0.00,,,0.00,0.00,VWS V14.01,2013-09-28 02:22:00,
2013-09-27 22:23:00,56.9,50.2,30.16,ENE,57,2.0,2.8,78,0.00,,,0.00,0.00,VWS V14.01,2013-09-28 02:23:00,
2013-09-27 22:25:00,56.5,48.5,30.16,ENE,57,2.0,2.8,75,0.00,,,0.00,0.00,VWS V14.01,2013-09-28 02:25:00,
2013-09-27 22:28:00,56.3,49.8,30.16,ENE,60,2.2,2.8,79,0.00,,,0.00,0.00,VWS V14.01,2013-09-28 02:28:00,
2013-09-27 22:30:00,55.9,49.5,30.15,NE,50,1.6,2.8,79,0.00,,,0.00,0.00,VWS V14.01,2013-09-28 02:30:00,
2013-09-27 22:31:00,56.3,50.1,30.15,NE,50,0.0,2.8,79,0.00,,,0.00,0.00,VWS V14.01,2013-09-28 02:31:00,
2013-09-27 22:32:00,56.3,49.9,30.15,NE,50,0.0,2.8,79,0.00,,,0.00,0.00,VWS V14.01,2013-09-28 02:32:00,
2013-09-27 22:33:00,56.3,50.4,30.16,NE,50,1.3,2.8,80,0.00,,,0.00,0.00,VWS V14.01,2013-09-28 02:33:00,
2013-09-27 22:34:00,55.9,49.9,30.16,NE,50,1.8,2.8,80,0.00,,,0.00,0.00,VWS V14.01,2013-09-28 02:34:00,
2013-09-27 22:35:00,56.2,50.2,30.17,NE,50,1.5,2.8,80,0.00,,,0.00,0.43,VWS V14.01,2013-09-28 02:35:00,
2013-09-27 22:37:00,55.7,49.8,30.16,NE,50,2.2,2.8,80,0.00,,,0.00,0.00,VWS V14.01,2013-09-28 02:37:00,
2013-09-27 22:38:00,56.4,50.6,30.16,NE,50,1.3,2.8,81,0.00,,,0.00,0.00,VWS V14.01,2013-09-28 02:38:00,
2013-09-27 22:39:00,56.3,50.5,30.16,ENE,58,2.5,2.8,81,0.00,,,0.00,0.00,VWS V14.01,2013-09-28 02:39:00,
2013-09-27 22:41:00,56.5,50.5,30.16,NE,48,2.2,2.8,80,0.00,,,0.00,0.00,VWS V14.01,2013-09-28 02:41:00,
2013-09-27 22:42:00,55.6,49.6,30.19,NE,48,1.1,2.8,80,0.00,,,0.00,0.00,VWS V14.01,2013-09-28 02:42:00,
2013-09-27 22:44:00,56.1,50.3,30.17,NE,48,2.2,2.8,81,0.00,,,0.00,0.00,VWS V14.01,2013-09-28 02:44:00,
2013-09-27 22:45:00,56.5,50.8,30.16,NE,51,2.0,2.8,81,0.00,,,0.00,0.00,VWS V14.01,2013-09-28 02:45:00,
2013-09-27 22:47:00,56.4,50.7,30.16,ENE,58,2.5,2.8,81,0.00,,,0.00,0.00,VWS V14.01,2013-09-28 02:47:00,
2013-09-27 22:50:00,56.1,50.5,30.16,NE,49,1.1,2.8,81,0.00,,,0.00,0.00,VWS V14.01,2013-09-28 02:50:00,
2013-09-27 22:51:00,56.2,50.5,30.16,NE,41,1.3,2.8,81,0.00,,,0.00,0.12,VWS V14.01,2013-09-28 02:51:00,
2013-09-27 22:52:00,56.2,50.5,30.17,NE,41,1.3,2.8,81,0.00,,,0.00,0.00,VWS V14.01,2013-09-28 02:52:00,
2013-09-27 22:54:00,55.8,50.2,30.18,NE,47,1.1,2.8,81,0.00,,,0.00,0.00,VWS V14.01,2013-09-28 02:54:00,
2013-09-27 22:56:00,56.1,50.6,30.17,NE,51,1.5,2.8,82,0.00,,,0.00,0.00,VWS V14.01,2013-09-28 02:56:00,
2013-09-27 22:57:00,56.1,50.5,30.17,NE,51,2.2,2.8,82,0.00,,,0.00,0.00,VWS V14.01,2013-09-28 02:57:00,
2013-09-27 22:59:00,55.6,50.0,30.17,NE,55,2.0,2.8,81,0.00,,,0.00,0.00,VWS V14.01,2013-09-28 02:59:00,
2013-09-27 23:00:00,55.2,49.5,30.17,NE,55,2.3,2.8,81,0.00,,,0.00,0.00,VWS V14.01,2013-09-28 03:00:00,
2013-09-27 23:01:00,55.1,49.7,30.16,ENE,59,2.8,2.8,82,0.00,,,0.00,0.00,VWS V14.01,2013-09-28 03:01:00,
2013-09-27 23:02:00,55.2,49.9,30.16,ENE,59,2.2,2.8,82,0.00,,,0.00,0.43,VWS V14.01,2013-09-28 03:02:00,
2013-09-27 23:04:00,55.2,50.0,30.16,NE,54,2.7,2.7,83,0.00,,,0.00,0.00,VWS V14.01,2013-09-28 03:04:00,
2013-09-27 23:05:00,54.0,48.7,30.16,NE,44,2.0,2.7,82,0.00,,,0.00,0.43,VWS V14.01,2013-09-28 03:05:00,
2013-09-27 23:07:00,54.3,49.3,30.17,NE,50,1.6,1.6,83,0.00,,,0.00,0.00,VWS V14.01,2013-09-28 03:07:00,
2013-09-27 23:09:00,54.7,50.1,30.16,NE,54,2.0,2.0,85,0.00,,,0.00,0.00,VWS V14.01,2013-09-28 03:09:00,
2013-09-27 23:10:00,55.2,50.7,30.16,ENE,59,1.3,2.0,85,0.00,,,0.00,0.06,VWS V14.01,2013-09-28 03:10:00,
2013-09-27 23:12:00,55.3,50.8,30.17,ENE,58,1.0,2.0,85,0.00,,,0.00,0.00,VWS V14.01,2013-09-28 03:12:00,
2013-09-27 23:14:00,54.5,49.7,30.17,ENE,58,0.0,0.0,84,0.00,,,0.00,0.00,VWS V14.01,2013-09-28 03:14:00,
2013-09-27 23:15:00,54.8,50.4,30.17,ENE,58,0.0,0.0,85,0.00,,,0.00,0.00,VWS V14.01,2013-09-28 03:15:00,
2013-09-27 23:16:00,54.2,49.8,30.17,ENE,58,0.0,0.0,85,0.00,,,0.00,0.00,VWS V14.01,2013-09-28 03:16:00,
2013-09-27 23:19:00,53.6,49.1,30.17,ESE,121,0.0,0.0,85,0.00,,,0.00,0.12,VWS V14.01,2013-09-28 03:19:00,
2013-09-27 23:20:00,54.4,50.1,30.17,ESE,121,0.0,0.0,85,0.00,,,0.00,0.00,VWS V14.01,2013-09-28 03:20:00,
2013-09-27 23:21:00,54.3,50.3,30.17,ESE,116,0.0,0.0,86,0.00,,,0.00,0.00,VWS V14.01,2013-09-28 03:21:00,
2013-09-27 23:25:00,53.6,49.6,30.16,ESE,116,0.0,0.0,86,0.00,,,0.00,0.00,VWS V14.01,2013-09-28 03:25:00,
2013-09-27 23:26:00,54.2,50.5,30.16,ESE,116,0.0,0.0,87,0.00,,,0.00,0.00,VWS V14.01,2013-09-28 03:26:00,
2013-09-27 23:27:00,54.1,50.5,30.15,ESE,116,0.0,0.0,87,0.00,,,0.00,0.00,VWS V14.01,2013-09-28 03:27:00,
2013-09-27 23:31:00,54.3,50.9,30.15,ESE,116,0.0,0.0,88,0.00,,,0.00,0.43,VWS V14.01,2013-09-28 03:31:00,
2013-09-27 23:32:00,54.1,50.8,30.16,East,92,0.0,0.0,89,0.00,,,0.00,0.00,VWS V14.01,2013-09-28 03:32:00,
2013-09-27 23:34:00,53.7,50.3,30.16,ENE,67,0.0,1.5,88,0.00,,,0.00,0.00,VWS V14.01,2013-09-28 03:34:00,
2013-09-27 23:37:00,54.4,51.4,30.15,ENE,67,1.8,1.8,90,0.00,,,0.00,0.00,VWS V14.01,2013-09-28 03:37:00,
2013-09-27 23:38:00,54.2,51.3,30.15,ENE,67,1.8,1.8,90,0.00,,,0.00,0.43,VWS V14.01,2013-09-28 03:38:00,
2013-09-27 23:40:00,54.5,51.7,30.15,ENE,62,2.0,2.0,90,0.00,,,0.00,0.00,VWS V14.01,2013-09-28 03:40:00,
2013-09-27 23:43:00,54.2,51.2,30.15,NE,53,2.0,2.3,90,0.00,,,0.00,0.00,VWS V14.01,2013-09-28 03:43:00,
2013-09-27 23:44:00,54.1,51.2,30.15,NE,53,2.5,2.5,90,0.00,,,0.00,0.00,VWS V14.01,2013-09-28 03:44:00,
2013-09-27 23:45:00,53.7,50.7,30.15,NE,54,1.0,1.6,90,0.00,,,0.00,0.00,VWS V14.01,2013-09-28 03:45:00,
2013-09-27 23:48:00,54.1,51.3,30.17,NE,54,1.8,1.8,90,0.00,,,0.00,0.00,VWS V14.01,2013-09-28 03:48:00,
2013-09-27 23:51:00,54.1,51.3,30.17,NE,54,1.5,1.8,90,0.00,,,0.00,0.00,VWS V14.01,2013-09-28 03:51:00,
2013-09-27 23:52:00,54.2,51.5,30.15,NE,54,0.0,0.0,90,0.00,,,0.00,0.00,VWS V14.01,2013-09-28 03:52:00,
2013-09-27 23:53:00,53.8,51.1,30.16,NE,54,0.0,0.0,91,0.00,,,0.00,0.00,VWS V14.01,2013-09-28 03:53:00,
2013-09-27 23:56:00,53.6,51.0,30.15,NE,55,2.0,2.0,91,0.00,,,0.00,0.00,VWS V14.01,2013-09-28 03:56:00,
2013-09-27 23:58:00,53.0,50.5,30.16,NE,55,0.0,0.0,91,0.00,,,0.00,0.00,VWS V14.01,2013-09-28 03:58:00,
2013-09-27 23:59:00,53.7,51.2,30.17,NE,55,0.0,0.0,91,0.00,,,0.00,0.00,VWS V14.01,2013-09-28 03:59:00,